Time,TemperatureF,DewpointF,PressureIn,WindDirection,WindDirectionDegrees,WindSpeedMPH,WindSpeedGustMPH,Humidity,HourlyPrecipIn,Conditions,Clouds,dailyrainin,SoftwareType,DateUTC
2013-02-28 00:00:00,40.3,25.9,-100.00,NW,326,13.0,20.0,56,0.00,,,0.00,meteohub,2013-02-28 06:00:00,
2013-02-28 00:03:00,40.1,25.7,-100.00,NNW,346,6.0,20.0,56,0.00,,,0.00,meteohub,2013-02-28 06:03:00,
2013-02-28 00:04:00,40.1,25.7,-100.00,NNW,345,12.0,20.0,56,0.00,,,0.00,meteohub,2013-02-28 06:04:00,
2013-02-28 00:05:00,40.1,25.7,-100.00,NNW,337,17.0,20.0,56,0.00,,,0.00,meteohub,2013-02-28 06:05:00,
2013-02-28 00:08:00,40.1,26.1,-100.00,NNW,340,9.0,20.0,57,0.00,,,0.00,meteohub,2013-02-28 06:08:00,
2013-02-28 00:09:00,39.9,25.9,-100.00,NNW,334,13.0,20.0,57,0.00,,,0.00,meteohub,2013-02-28 06:09:00,
2013-02-28 00:10:00,39.9,25.9,-100.00,NNW,331,9.0,20.0,57,0.00,,,0.00,meteohub,2013-02-28 06:10:00,
2013-02-28 00:13:00,39.9,25.9,-100.00,NNW,333,11.0,19.0,57,0.00,,,0.00,meteohub,2013-02-28 06:13:00,
2013-02-28 00:15:00,39.7,25.7,-100.00,NNW,331,12.0,19.0,57,0.00,,,0.00,meteohub,2013-02-28 06:15:00,
2013-02-28 00:16:00,39.7,25.7,-100.00,NNW,333,9.0,19.0,57,0.00,,,0.00,meteohub,2013-02-28 06:16:00,
2013-02-28 00:17:00,39.7,25.7,-100.00,NNW,338,14.0,18.0,57,0.00,,,0.00,meteohub,2013-02-28 06:17:00,
2013-02-28 00:19:00,39.6,25.5,-100.00,NNW,334,8.0,18.0,57,0.00,,,0.00,meteohub,2013-02-28 06:19:00,
2013-02-28 00:20:00,39.6,25.5,-100.00,NNW,328,14.0,18.0,57,0.00,,,0.00,meteohub,2013-02-28 06:20:00,
2013-02-28 00:22:00,39.6,26.1,-100.00,NNW,333,8.0,18.0,58,0.00,,,0.00,meteohub,2013-02-28 06:22:00,
2013-02-28 00:24:00,39.6,26.1,-100.00,NNW,341,12.0,16.0,58,0.00,,,0.00,meteohub,2013-02-28 06:24:00,
2013-02-28 00:25:00,39.6,26.1,-100.00,NNW,341,10.0,16.0,58,0.00,,,0.00,meteohub,2013-02-28 06:25:00,
2013-02-28 00:28:00,39.6,26.1,-100.00,NW,326,10.0,16.0,58,0.00,,,0.00,meteohub,2013-02-28 06:28:00,
2013-02-28 00:29:00,39.6,26.1,-100.00,North,349,11.0,16.0,58,0.00,,,0.00,meteohub,2013-02-28 06:29:00,
2013-02-28 00:30:00,39.6,26.1,-100.00,NNW,348,12.0,16.0,58,0.00,,,0.00,meteohub,2013-02-28 06:30:00,
2013-02-28 00:33:00,39.4,25.9,-100.00,NNW,348,14.0,17.0,58,0.00,,,0.00,meteohub,2013-02-28 06:33:00,
2013-02-28 00:34:00,39.4,25.9,-100.00,NNW,333,10.0,17.0,58,0.00,,,0.00,meteohub,2013-02-28 06:34:00,
2013-02-28 00:36:00,39.4,25.9,-100.00,NNW,338,10.0,17.0,58,0.00,,,0.00,meteohub,2013-02-28 06:36:00,
2013-02-28 00:38:00,39.4,25.9,-100.00,NNW,334,10.0,18.0,58,0.00,,,0.00,meteohub,2013-02-28 06:38:00,
2013-02-28 00:39:00,39.4,25.9,-100.00,NNW,339,12.0,18.0,58,0.00,,,0.00,meteohub,2013-02-28 06:39:00,
2013-02-28 00:41:00,39.4,25.9,-100.00,NW,323,7.0,18.0,58,0.00,,,0.00,meteohub,2013-02-28 06:41:00,
2013-02-28 00:44:00,39.4,25.9,-100.00,NNW,344,10.0,18.0,58,0.00,,,0.00,meteohub,2013-02-28 06:44:00,
2013-02-28 00:46:00,39.4,25.9,-100.00,NNW,331,13.0,18.0,58,0.00,,,0.00,meteohub,2013-02-28 06:46:00,
2013-02-28 00:49:00,39.2,25.7,-100.00,NNW,333,9.0,18.0,58,0.00,,,0.00,meteohub,2013-02-28 06:49:00,
2013-02-28 00:52:00,39.2,25.7,-100.00,NNW,341,11.0,18.0,58,0.00,,,0.00,meteohub,2013-02-28 06:52:00,
2013-02-28 00:54:00,39.2,25.7,-100.00,NNW,330,7.0,18.0,58,0.00,,,0.00,meteohub,2013-02-28 06:54:00,
2013-02-28 00:55:00,39.2,25.7,-100.00,NNW,331,9.0,18.0,58,0.00,,,0.00,meteohub,2013-02-28 06:55:00,
2013-02-28 00:57:00,39.2,26.1,-100.00,NNW,338,11.0,16.0,59,0.00,,,0.00,meteohub,2013-02-28 06:57:00,
2013-02-28 00:59:00,39.2,25.7,-100.00,NNW,329,13.0,16.0,58,0.00,,,0.00,meteohub,2013-02-28 06:59:00,
2013-02-28 01:01:00,39.2,25.7,-100.00,NW,325,10.0,16.0,58,0.00,,,0.00,meteohub,2013-02-28 07:01:00,
2013-02-28 01:02:00,39.2,25.7,-100.00,NNW,327,7.0,16.0,58,0.00,,,0.00,meteohub,2013-02-28 07:02:00,
2013-02-28 01:04:00,39.2,26.1,-100.00,NNW,333,9.0,16.0,59,0.00,,,0.00,meteohub,2013-02-28 07:04:00,
2013-02-28 01:05:00,39.0,25.9,-100.00,NNW,344,11.0,16.0,59,0.00,,,0.00,meteohub,2013-02-28 07:05:00,
2013-02-28 01:06:00,39.0,25.9,-100.00,NNW,330,11.0,16.0,59,0.00,,,0.00,meteohub,2013-02-28 07:06:00,
2013-02-28 01:07:00,39.0,25.9,-100.00,NW,325,10.0,16.0,59,0.00,,,0.00,meteohub,2013-02-28 07:07:00,
2013-02-28 01:09:00,39.0,25.9,-100.00,NW,321,13.0,16.0,59,0.00,,,0.00,meteohub,2013-02-28 07:09:00,
2013-02-28 01:10:00,39.0,25.9,-100.00,NNW,328,10.0,16.0,59,0.00,,,0.00,meteohub,2013-02-28 07:10:00,
2013-02-28 01:12:00,38.8,25.7,-100.00,NNW,336,10.0,15.0,59,0.00,,,0.00,meteohub,2013-02-28 07:12:00,
2013-02-28 01:15:00,38.8,25.7,-100.00,NW,318,14.0,15.0,59,0.00,,,0.00,meteohub,2013-02-28 07:15:00,
2013-02-28 01:17:00,38.8,25.7,-100.00,NNW,331,12.0,17.0,59,0.00,,,0.00,meteohub,2013-02-28 07:17:00,
2013-02-28 01:18:00,38.8,25.7,-100.00,NNW,331,10.0,17.0,59,0.00,,,0.00,meteohub,2013-02-28 07:18:00,
2013-02-28 01:20:00,39.0,25.9,-100.00,NW,317,19.0,19.0,59,0.00,,,0.00,meteohub,2013-02-28 07:20:00,
2013-02-28 01:22:00,39.0,25.9,-100.00,NNW,336,6.0,17.0,59,0.00,,,0.00,meteohub,2013-02-28 07:22:00,
2013-02-28 01:23:00,39.0,25.9,-100.00,NNW,338,9.0,17.0,59,0.00,,,0.00,meteohub,2013-02-28 07:23:00,
2013-02-28 01:25:00,38.8,25.7,-100.00,NNW,340,13.0,17.0,59,0.00,,,0.00,meteohub,2013-02-28 07:25:00,
2013-02-28 01:27:00,38.8,25.7,-100.00,NNW,338,13.0,19.0,59,0.00,,,0.00,meteohub,2013-02-28 07:27:00,
2013-02-28 01:28:00,38.8,25.7,-100.00,NNW,338,14.0,19.0,59,0.00,,,0.00,meteohub,2013-02-28 07:28:00,
2013-02-28 01:30:00,38.8,26.1,-100.00,NNW,335,6.0,19.0,60,0.00,,,0.00,meteohub,2013-02-28 07:30:00,
2013-02-28 01:31:00,38.8,26.1,-100.00,NNW,339,9.0,19.0,60,0.00,,,0.00,meteohub,2013-02-28 07:31:00,
2013-02-28 01:33:00,38.7,26.1,-100.00,NNW,343,10.0,19.0,60,0.00,,,0.00,meteohub,2013-02-28 07:33:00,
2013-02-28 01:35:00,38.7,26.1,-100.00,NNW,335,9.0,19.0,60,0.00,,,0.00,meteohub,2013-02-28 07:35:00,
2013-02-28 01:36:00,38.5,25.9,-100.00,NNW,336,9.0,17.0,60,0.00,,,0.00,meteohub,2013-02-28 07:36:00,
2013-02-28 01:38:00,38.5,25.9,-100.00,NNW,338,11.0,17.0,60,0.00,,,0.00,meteohub,2013-02-28 07:38:00,
2013-02-28 01:40:00,38.5,25.9,-100.00,NNW,338,8.0,17.0,60,0.00,,,0.00,meteohub,2013-02-28 07:40:00,
2013-02-28 01:41:00,38.5,25.9,-100.00,NNW,340,14.0,17.0,60,0.00,,,0.00,meteohub,2013-02-28 07:41:00,
2013-02-28 01:43:00,38.5,25.9,-100.00,NNW,333,12.0,17.0,60,0.00,,,0.00,meteohub,2013-02-28 07:43:00,
2013-02-28 01:46:00,38.5,25.9,-100.00,NNW,339,12.0,17.0,60,0.00,,,0.00,meteohub,2013-02-28 07:46:00,
2013-02-28 01:48:00,38.3,25.7,-100.00,NNW,331,9.0,17.0,60,0.00,,,0.00,meteohub,2013-02-28 07:48:00,
2013-02-28 01:49:00,38.3,25.7,-100.00,NNW,329,11.0,17.0,60,0.00,,,0.00,meteohub,2013-02-28 07:49:00,
2013-02-28 01:51:00,38.3,25.7,-100.00,NNW,340,9.0,17.0,60,0.00,,,0.00,meteohub,2013-02-28 07:51:00,
2013-02-28 01:52:00,38.3,25.7,-100.00,NNW,336,8.0,17.0,60,0.00,,,0.00,meteohub,2013-02-28 07:52:00,
2013-02-28 01:53:00,38.1,25.5,-100.00,NNW,335,9.0,17.0,60,0.00,,,0.00,meteohub,2013-02-28 07:53:00,
2013-02-28 01:54:00,38.1,25.9,-100.00,NNW,340,7.0,17.0,61,0.00,,,0.00,meteohub,2013-02-28 07:54:00,
2013-02-28 01:56:00,38.1,25.9,-100.00,NNW,331,12.0,17.0,61,0.00,,,0.00,meteohub,2013-02-28 07:56:00,
2013-02-28 01:58:00,38.1,25.9,-100.00,NNW,340,9.0,17.0,61,0.00,,,0.00,meteohub,2013-02-28 07:58:00,
2013-02-28 01:59:00,37.9,25.7,-100.00,NNW,340,6.0,17.0,61,0.00,,,0.00,meteohub,2013-02-28 07:59:00,
2013-02-28 02:01:00,37.9,25.7,-100.00,NW,324,9.0,15.0,61,0.00,,,0.00,meteohub,2013-02-28 08:01:00,
2013-02-28 02:03:00,37.9,25.7,-100.00,NNW,331,9.0,15.0,61,0.00,,,0.00,meteohub,2013-02-28 08:03:00,
2013-02-28 02:05:00,37.9,25.7,-100.00,NNW,341,10.0,15.0,61,0.00,,,0.00,meteohub,2013-02-28 08:05:00,
2013-02-28 02:07:00,37.9,25.7,-100.00,NNW,332,8.0,15.0,61,0.00,,,0.00,meteohub,2013-02-28 08:07:00,
2013-02-28 02:08:00,37.9,25.7,-100.00,NNW,328,10.0,15.0,61,0.00,,,0.00,meteohub,2013-02-28 08:08:00,
2013-02-28 02:09:00,37.9,26.1,-100.00,NNW,329,9.0,15.0,62,0.00,,,0.00,meteohub,2013-02-28 08:09:00,
2013-02-28 02:10:00,37.9,26.1,-100.00,NNW,346,13.0,15.0,62,0.00,,,0.00,meteohub,2013-02-28 08:10:00,
2013-02-28 02:12:00,37.9,26.1,-100.00,NNW,331,9.0,15.0,62,0.00,,,0.00,meteohub,2013-02-28 08:12:00,
2013-02-28 02:13:00,37.9,26.1,-100.00,NNW,338,6.0,15.0,62,0.00,,,0.00,meteohub,2013-02-28 08:13:00,
2013-02-28 02:14:00,37.9,26.1,-100.00,NNW,338,6.0,15.0,62,0.00,,,0.00,meteohub,2013-02-28 08:14:00,
2013-02-28 02:15:00,37.9,26.1,-100.00,NNW,338,6.0,15.0,62,0.00,,,0.00,meteohub,2013-02-28 08:15:00,
2013-02-28 02:17:00,37.9,26.1,-100.00,NNW,336,9.0,14.0,62,0.00,,,0.00,meteohub,2013-02-28 08:17:00,
2013-02-28 02:18:00,37.9,26.1,-100.00,NNW,339,13.0,14.0,62,0.00,,,0.00,meteohub,2013-02-28 08:18:00,
2013-02-28 02:19:00,37.9,26.4,-100.00,NNW,336,9.0,14.0,63,0.00,,,0.00,meteohub,2013-02-28 08:19:00,
2013-02-28 02:20:00,37.9,26.4,-100.00,NNW,332,11.0,14.0,63,0.00,,,0.00,meteohub,2013-02-28 08:20:00,
2013-02-28 02:22:00,37.8,26.2,-100.00,NNW,336,7.0,15.0,63,0.00,,,0.00,meteohub,2013-02-28 08:22:00,
2013-02-28 02:24:00,37.8,26.2,-100.00,NNW,337,5.0,15.0,63,0.00,,,0.00,meteohub,2013-02-28 08:24:00,
2013-02-28 02:25:00,37.8,26.2,-100.00,NNW,340,10.0,15.0,63,0.00,,,0.00,meteohub,2013-02-28 08:25:00,
2013-02-28 02:27:00,37.8,26.2,-100.00,NNW,338,8.0,15.0,63,0.00,,,0.00,meteohub,2013-02-28 08:27:00,
2013-02-28 02:29:00,37.6,26.1,-100.00,NNW,333,11.0,15.0,63,0.00,,,0.00,meteohub,2013-02-28 08:29:00,
2013-02-28 02:30:00,37.6,26.1,-100.00,NNW,332,7.0,15.0,63,0.00,,,0.00,meteohub,2013-02-28 08:30:00,
2013-02-28 02:32:00,37.6,26.1,-100.00,NNW,340,10.0,15.0,63,0.00,,,0.00,meteohub,2013-02-28 08:32:00,
2013-02-28 02:34:00,37.8,26.2,-100.00,NNW,327,13.0,15.0,63,0.00,,,0.00,meteohub,2013-02-28 08:34:00,
2013-02-28 02:35:00,37.8,26.2,-100.00,NNW,329,9.0,15.0,63,0.00,,,0.00,meteohub,2013-02-28 08:35:00,
2013-02-28 02:38:00,37.8,25.9,-100.00,NNW,327,12.0,15.0,62,0.00,,,0.00,meteohub,2013-02-28 08:38:00,
2013-02-28 02:39:00,37.9,26.4,-100.00,NNW,340,11.0,15.0,63,0.00,,,0.00,meteohub,2013-02-28 08:39:00,
2013-02-28 02:40:00,37.9,26.4,-100.00,NW,325,13.0,15.0,63,0.00,,,0.00,meteohub,2013-02-28 08:40:00,
2013-02-28 02:43:00,37.9,26.4,-100.00,NNW,337,7.0,15.0,63,0.00,,,0.00,meteohub,2013-02-28 08:43:00,
2013-02-28 02:45:00,37.9,26.4,-100.00,NNW,337,8.0,15.0,63,0.00,,,0.00,meteohub,2013-02-28 08:45:00,
2013-02-28 02:46:00,37.9,26.4,-100.00,NNW,336,10.0,15.0,63,0.00,,,0.00,meteohub,2013-02-28 08:46:00,
2013-02-28 02:48:00,37.8,26.2,-100.00,NNW,344,7.0,15.0,63,0.00,,,0.00,meteohub,2013-02-28 08:48:00,
2013-02-28 02:50:00,37.8,26.6,-100.00,NNW,341,12.0,15.0,64,0.00,,,0.00,meteohub,2013-02-28 08:50:00,
2013-02-28 02:51:00,37.6,26.6,-100.00,NNW,346,9.0,15.0,64,0.00,,,0.00,meteohub,2013-02-28 08:51:00,
2013-02-28 02:53:00,37.6,26.6,-100.00,NNW,333,6.0,15.0,64,0.00,,,0.00,meteohub,2013-02-28 08:53:00,
2013-02-28 02:55:00,37.6,26.6,-100.00,NNW,342,4.0,15.0,64,0.00,,,0.00,meteohub,2013-02-28 08:55:00,
2013-02-28 02:56:00,37.6,26.6,-100.00,NNW,337,9.0,12.0,64,0.00,,,0.00,meteohub,2013-02-28 08:56:00,
2013-02-28 02:59:00,37.6,27.0,-100.00,NNW,327,7.0,12.0,65,0.00,,,0.00,meteohub,2013-02-28 08:59:00,
2013-02-28 03:01:00,37.6,27.0,-100.00,NNW,335,9.0,12.0,65,0.00,,,0.00,meteohub,2013-02-28 09:01:00,
2013-02-28 03:04:00,37.6,27.0,-100.00,NNW,332,4.0,12.0,65,0.00,,,0.00,meteohub,2013-02-28 09:04:00,
2013-02-28 03:06:00,37.6,27.0,-100.00,NNW,331,4.0,12.0,65,0.00,,,0.00,meteohub,2013-02-28 09:06:00,
2013-02-28 03:07:00,37.6,27.0,-100.00,NNW,331,6.0,12.0,65,0.00,,,0.00,meteohub,2013-02-28 09:07:00,
2013-02-28 03:09:00,37.2,27.0,-100.00,NNW,331,5.0,12.0,66,0.00,,,0.00,meteohub,2013-02-28 09:09:00,
2013-02-28 03:11:00,37.2,27.0,-100.00,NW,325,10.0,12.0,66,0.00,,,0.00,meteohub,2013-02-28 09:11:00,
2013-02-28 03:12:00,37.2,27.0,-100.00,NNW,327,11.0,12.0,66,0.00,,,0.00,meteohub,2013-02-28 09:12:00,
2013-02-28 03:13:00,37.2,27.0,-100.00,NNW,336,7.0,12.0,66,0.00,,,0.00,meteohub,2013-02-28 09:13:00,
2013-02-28 03:14:00,37.2,27.0,-100.00,NNW,331,9.0,12.0,66,0.00,,,0.00,meteohub,2013-02-28 09:14:00,
2013-02-28 03:16:00,37.6,27.3,-100.00,NNW,333,7.0,14.0,66,0.00,,,0.00,meteohub,2013-02-28 09:16:00,
2013-02-28 03:18:00,37.2,27.0,-100.00,NW,326,9.0,14.0,66,0.00,,,0.00,meteohub,2013-02-28 09:18:00,
2013-02-28 03:19:00,37.2,27.0,-100.00,NNW,335,7.0,14.0,66,0.00,,,0.00,meteohub,2013-02-28 09:19:00,
2013-02-28 03:21:00,37.2,27.0,-100.00,NNW,331,5.0,14.0,66,0.00,,,0.00,meteohub,2013-02-28 09:21:00,
2013-02-28 03:23:00,37.2,27.0,-100.00,North,351,7.0,14.0,66,0.00,,,0.00,meteohub,2013-02-28 09:23:00,
2013-02-28 03:24:00,37.2,27.0,-100.00,NNW,338,9.0,14.0,66,0.00,,,0.00,meteohub,2013-02-28 09:24:00,
2013-02-28 03:25:00,37.2,27.0,-100.00,NNW,334,9.0,14.0,66,0.00,,,0.00,meteohub,2013-02-28 09:25:00,
2013-02-28 03:26:00,37.2,27.3,-100.00,NNW,329,13.0,14.0,67,0.00,,,0.00,meteohub,2013-02-28 09:26:00,
2013-02-28 03:28:00,37.2,27.3,-100.00,NNW,337,10.0,14.0,67,0.00,,,0.00,meteohub,2013-02-28 09:28:00,
2013-02-28 03:29:00,37.2,27.3,-100.00,NNW,336,7.0,14.0,67,0.00,,,0.00,meteohub,2013-02-28 09:29:00,
2013-02-28 03:30:00,37.2,27.3,-100.00,NNW,333,12.0,14.0,67,0.00,,,0.00,meteohub,2013-02-28 09:30:00,
2013-02-28 03:32:00,37.2,27.3,-100.00,NNW,331,6.0,15.0,67,0.00,,,0.00,meteohub,2013-02-28 09:32:00,
2013-02-28 03:33:00,37.2,27.3,-100.00,NNW,330,7.0,15.0,67,0.00,,,0.00,meteohub,2013-02-28 09:33:00,
2013-02-28 03:34:00,37.2,27.3,-100.00,NW,325,9.0,15.0,67,0.00,,,0.00,meteohub,2013-02-28 09:34:00,
2013-02-28 03:35:00,37.2,27.3,-100.00,NW,324,13.0,15.0,67,0.00,,,0.00,meteohub,2013-02-28 09:35:00,
2013-02-28 03:38:00,37.2,27.3,-100.00,NNW,327,12.0,15.0,67,0.00,,,0.00,meteohub,2013-02-28 09:38:00,
2013-02-28 03:39:00,37.2,27.3,-100.00,NNW,336,13.0,15.0,67,0.00,,,0.00,meteohub,2013-02-28 09:39:00,
2013-02-28 03:41:00,37.2,27.3,-100.00,NNW,333,7.0,15.0,67,0.00,,,0.00,meteohub,2013-02-28 09:41:00,
2013-02-28 03:43:00,37.2,27.3,-100.00,NNW,332,12.0,15.0,67,0.00,,,0.00,meteohub,2013-02-28 09:43:00,
2013-02-28 03:44:00,37.2,27.3,-100.00,NW,325,10.0,15.0,67,0.00,,,0.00,meteohub,2013-02-28 09:44:00,
2013-02-28 03:45:00,37.2,27.3,-100.00,NW,323,13.0,15.0,67,0.00,,,0.00,meteohub,2013-02-28 09:45:00,
2013-02-28 03:47:00,37.2,27.3,-100.00,NW,325,14.0,15.0,67,0.00,,,0.00,meteohub,2013-02-28 09:47:00,
2013-02-28 03:48:00,37.2,27.3,-100.00,NW,325,12.0,15.0,67,0.00,,,0.00,meteohub,2013-02-28 09:48:00,
2013-02-28 03:49:00,37.2,27.3,-100.00,NNW,337,6.0,15.0,67,0.00,,,0.00,meteohub,2013-02-28 09:49:00,
2013-02-28 03:50:00,37.2,27.3,-100.00,NW,323,7.0,15.0,67,0.00,,,0.00,meteohub,2013-02-28 09:50:00,
2013-02-28 03:52:00,37.2,27.3,-100.00,NNW,329,9.0,15.0,67,0.00,,,0.00,meteohub,2013-02-28 09:52:00,
2013-02-28 03:53:00,37.2,27.3,-100.00,NNW,333,12.0,15.0,67,0.00,,,0.00,meteohub,2013-02-28 09:53:00,
2013-02-28 03:55:00,37.2,27.7,-100.00,NW,325,9.0,15.0,68,0.00,,,0.00,meteohub,2013-02-28 09:55:00,
2013-02-28 03:57:00,37.2,27.7,-100.00,NNW,329,9.0,16.0,68,0.00,,,0.00,meteohub,2013-02-28 09:57:00,
2013-02-28 04:00:00,37.2,27.7,-100.00,NNW,335,7.0,16.0,68,0.00,,,0.00,meteohub,2013-02-28 10:00:00,
2013-02-28 04:02:00,37.2,27.7,-100.00,NW,324,6.0,16.0,68,0.00,,,0.00,meteohub,2013-02-28 10:02:00,
2013-02-28 04:05:00,37.2,27.7,-100.00,NW,325,5.0,16.0,68,0.00,,,0.00,meteohub,2013-02-28 10:05:00,
2013-02-28 04:06:00,37.2,28.0,-100.00,NW,324,11.0,17.0,69,0.00,,,0.00,meteohub,2013-02-28 10:06:00,
2013-02-28 04:07:00,37.2,28.0,-100.00,NW,322,11.0,17.0,69,0.00,,,0.00,meteohub,2013-02-28 10:07:00,
2013-02-28 04:10:00,37.2,28.0,-100.00,NNW,333,9.0,17.0,69,0.00,,,0.00,meteohub,2013-02-28 10:10:00,
2013-02-28 04:11:00,37.2,28.0,-100.00,NNW,333,9.0,17.0,69,0.00,,,0.00,meteohub,2013-02-28 10:11:00,
2013-02-28 04:12:00,37.2,28.0,-100.00,NW,321,8.0,17.0,69,0.00,,,0.00,meteohub,2013-02-28 10:12:00,
2013-02-28 04:16:00,37.2,28.0,-100.00,NNW,344,8.0,16.0,69,0.00,,,0.00,meteohub,2013-02-28 10:16:00,
2013-02-28 04:17:00,37.2,28.4,-100.00,NNW,328,9.0,16.0,70,0.00,,,0.00,meteohub,2013-02-28 10:17:00,
2013-02-28 04:21:00,37.2,28.4,-100.00,NNW,336,13.0,15.0,70,0.00,,,0.00,meteohub,2013-02-28 10:21:00,
2013-02-28 04:22:00,37.2,28.4,-100.00,NW,323,9.0,15.0,70,0.00,,,0.00,meteohub,2013-02-28 10:22:00,
2013-02-28 04:23:00,37.2,29.7,-100.00,NNW,327,10.0,15.0,74,0.00,,,0.00,meteohub,2013-02-28 10:23:00,
2013-02-28 04:26:00,37.2,28.4,-100.00,NNW,340,13.0,15.0,70,0.00,,,0.00,meteohub,2013-02-28 10:26:00,
2013-02-28 04:27:00,37.2,28.4,-100.00,NNW,330,11.0,15.0,70,0.00,,,0.00,meteohub,2013-02-28 10:27:00,
2013-02-28 04:28:00,37.2,28.4,-100.00,NNW,335,8.0,15.0,70,0.00,,,0.00,meteohub,2013-02-28 10:28:00,
2013-02-28 04:31:00,37.2,28.4,-100.00,NNW,331,9.0,15.0,70,0.00,,,0.00,meteohub,2013-02-28 10:31:00,
2013-02-28 04:32:00,37.2,28.4,-100.00,NNW,333,6.0,15.0,70,0.00,,,0.00,meteohub,2013-02-28 10:32:00,
2013-02-28 04:33:00,37.6,28.8,-100.00,NW,326,10.0,15.0,70,0.00,,,0.00,meteohub,2013-02-28 10:33:00,
2013-02-28 04:35:00,37.6,28.8,-100.00,NNW,329,10.0,15.0,70,0.00,,,0.00,meteohub,2013-02-28 10:35:00,
2013-02-28 04:36:00,37.6,28.8,-100.00,NNW,327,9.0,18.0,70,0.00,,,0.00,meteohub,2013-02-28 10:36:00,
2013-02-28 04:37:00,37.6,28.8,-100.00,NNW,331,9.0,18.0,70,0.00,,,0.00,meteohub,2013-02-28 10:37:00,
2013-02-28 04:38:00,37.2,28.4,-100.00,NNW,331,6.0,18.0,70,0.00,,,0.00,meteohub,2013-02-28 10:38:00,
2013-02-28 04:41:00,37.2,28.8,-100.00,NW,322,7.0,18.0,71,0.00,,,0.00,meteohub,2013-02-28 10:41:00,
2013-02-28 04:42:00,37.2,28.8,-100.00,NNW,328,11.0,18.0,71,0.00,,,0.00,meteohub,2013-02-28 10:42:00,
2013-02-28 04:43:00,37.2,28.8,-100.00,NW,318,10.0,18.0,71,0.00,,,0.00,meteohub,2013-02-28 10:43:00,
2013-02-28 04:46:00,37.2,28.4,-100.00,NNW,327,8.0,17.0,70,0.00,,,0.00,meteohub,2013-02-28 10:46:00,
2013-02-28 04:47:00,37.2,28.4,-100.00,NNW,339,9.0,17.0,70,0.00,,,0.00,meteohub,2013-02-28 10:47:00,
2013-02-28 04:48:00,37.2,28.4,-100.00,NNW,337,12.0,17.0,70,0.00,,,0.00,meteohub,2013-02-28 10:48:00,
2013-02-28 04:49:00,37.2,28.4,-100.00,NNW,338,6.0,17.0,70,0.00,,,0.00,meteohub,2013-02-28 10:49:00,
2013-02-28 04:51:00,37.2,28.8,-100.00,NNW,327,6.0,17.0,71,0.00,,,0.00,meteohub,2013-02-28 10:51:00,
2013-02-28 04:52:00,37.2,28.8,-100.00,NNW,331,8.0,17.0,71,0.00,,,0.00,meteohub,2013-02-28 10:52:00,
2013-02-28 04:53:00,37.2,28.8,-100.00,NNW,337,15.0,17.0,71,0.00,,,0.00,meteohub,2013-02-28 10:53:00,
2013-02-28 04:54:00,37.2,28.8,-100.00,NNW,343,13.0,17.0,71,0.00,,,0.00,meteohub,2013-02-28 10:54:00,
2013-02-28 04:56:00,37.2,28.8,-100.00,NW,321,17.0,17.0,71,0.00,,,0.00,meteohub,2013-02-28 10:56:00,
2013-02-28 04:58:00,37.2,28.8,-100.00,NW,318,9.0,17.0,71,0.00,,,0.00,meteohub,2013-02-28 10:58:00,
2013-02-28 04:59:00,37.2,28.8,-100.00,NNW,329,7.0,17.0,71,0.00,,,0.00,meteohub,2013-02-28 10:59:00,
2013-02-28 05:03:00,37.2,28.8,-100.00,NNW,332,9.0,17.0,71,0.00,,,0.00,meteohub,2013-02-28 11:03:00,
2013-02-28 05:04:00,37.0,28.6,-100.00,NNW,336,9.0,18.0,71,0.00,,,0.00,meteohub,2013-02-28 11:04:00,
2013-02-28 05:08:00,36.9,28.4,-100.00,NNW,341,10.0,18.0,71,0.00,,,0.00,meteohub,2013-02-28 11:08:00,
2013-02-28 05:09:00,36.9,28.4,-100.00,NNW,339,10.0,18.0,71,0.00,,,0.00,meteohub,2013-02-28 11:09:00,
2013-02-28 05:14:00,36.7,28.6,-100.00,NNW,338,9.0,14.0,72,0.00,,,0.00,meteohub,2013-02-28 11:14:00,
2013-02-28 05:15:00,36.7,28.6,-100.00,NNW,345,10.0,14.0,72,0.00,,,0.00,meteohub,2013-02-28 11:15:00,
2013-02-28 05:16:00,36.7,28.6,-100.00,NNW,338,7.0,14.0,72,0.00,,,0.00,meteohub,2013-02-28 11:16:00,
2013-02-28 05:19:00,36.5,28.4,-100.00,NNW,344,12.0,15.0,72,0.00,,,0.00,meteohub,2013-02-28 11:19:00,
2013-02-28 05:20:00,36.5,28.4,-100.00,NNW,346,5.0,15.0,72,0.00,,,0.00,meteohub,2013-02-28 11:20:00,
2013-02-28 05:21:00,36.5,28.4,-100.00,North,351,10.0,15.0,72,0.00,,,0.00,meteohub,2013-02-28 11:21:00,
2013-02-28 05:24:00,36.3,28.2,-100.00,NNW,347,11.0,15.0,72,0.00,,,0.00,meteohub,2013-02-28 11:24:00,
2013-02-28 05:25:00,36.3,28.2,-100.00,NNW,346,10.0,15.0,72,0.00,,,0.00,meteohub,2013-02-28 11:25:00,
2013-02-28 05:26:00,36.3,28.2,-100.00,NNW,336,11.0,15.0,72,0.00,,,0.00,meteohub,2013-02-28 11:26:00,
2013-02-28 05:29:00,36.1,28.0,-100.00,North,355,10.0,15.0,72,0.00,,,0.00,meteohub,2013-02-28 11:29:00,
2013-02-28 05:30:00,36.1,28.0,-100.00,NNW,345,11.0,15.0,72,0.00,,,0.00,meteohub,2013-02-28 11:30:00,
2013-02-28 05:31:00,36.1,28.0,-100.00,NNW,346,7.0,15.0,72,0.00,,,0.00,meteohub,2013-02-28 11:31:00,
2013-02-28 05:34:00,36.0,27.9,-100.00,NNW,348,10.0,15.0,72,0.00,,,0.00,meteohub,2013-02-28 11:34:00,
2013-02-28 05:35:00,36.0,27.9,-100.00,NNW,341,5.0,15.0,72,0.00,,,0.00,meteohub,2013-02-28 11:35:00,
2013-02-28 05:37:00,36.0,28.2,-100.00,NNW,340,8.0,15.0,73,0.00,,,0.00,meteohub,2013-02-28 11:37:00,
2013-02-28 05:40:00,36.0,28.2,-100.00,NNW,340,9.0,15.0,73,0.00,,,0.00,meteohub,2013-02-28 11:40:00,
2013-02-28 05:41:00,36.0,28.2,-100.00,NNW,346,8.0,15.0,73,0.00,,,0.00,meteohub,2013-02-28 11:41:00,
2013-02-28 05:42:00,36.0,28.2,-100.00,North,349,7.0,15.0,73,0.00,,,0.00,meteohub,2013-02-28 11:42:00,
2013-02-28 05:46:00,36.0,28.2,-100.00,North,350,8.0,15.0,73,0.00,,,0.00,meteohub,2013-02-28 11:46:00,
2013-02-28 05:47:00,35.8,28.0,-100.00,NNW,342,10.0,15.0,73,0.00,,,0.00,meteohub,2013-02-28 11:47:00,
2013-02-28 05:51:00,35.8,28.0,-100.00,NNW,342,8.0,15.0,73,0.00,,,0.00,meteohub,2013-02-28 11:51:00,
2013-02-28 05:52:00,35.8,28.0,-100.00,NNW,343,7.0,15.0,73,0.00,,,0.00,meteohub,2013-02-28 11:52:00,
2013-02-28 05:56:00,35.6,27.9,-100.00,NNW,342,8.0,15.0,73,0.00,,,0.00,meteohub,2013-02-28 11:56:00,
2013-02-28 05:57:00,35.6,27.9,-100.00,North,355,11.0,15.0,73,0.00,,,0.00,meteohub,2013-02-28 11:57:00,
2013-02-28 05:58:00,35.6,28.2,-100.00,NNW,343,10.0,14.0,74,0.00,,,0.00,meteohub,2013-02-28 11:58:00,
2013-02-28 06:01:00,35.6,28.2,-100.00,NNW,344,10.0,14.0,74,0.00,,,0.00,meteohub,2013-02-28 12:01:00,
2013-02-28 06:02:00,35.6,28.2,-100.00,NNW,344,6.0,14.0,74,0.00,,,0.00,meteohub,2013-02-28 12:02:00,
2013-02-28 06:03:00,35.4,28.0,-100.00,NNW,338,11.0,14.0,74,0.00,,,0.00,meteohub,2013-02-28 12:03:00,
2013-02-28 06:07:00,35.4,28.0,-100.00,NNW,338,10.0,14.0,74,0.00,,,0.00,meteohub,2013-02-28 12:07:00,
2013-02-28 06:09:00,35.4,28.0,-100.00,NNW,338,8.0,14.0,74,0.00,,,0.00,meteohub,2013-02-28 12:09:00,
2013-02-28 06:12:00,35.4,28.0,-100.00,NNW,337,6.0,14.0,74,0.00,,,0.00,meteohub,2013-02-28 12:12:00,
2013-02-28 06:14:00,35.2,29.1,-100.00,NNW,338,6.0,14.0,78,0.00,,,0.00,meteohub,2013-02-28 12:14:00,
2013-02-28 06:17:00,35.2,27.9,-100.00,NNW,345,7.0,14.0,74,0.00,,,0.00,meteohub,2013-02-28 12:17:00,
2013-02-28 06:18:00,35.2,27.9,-100.00,NNW,340,8.0,14.0,74,0.00,,,0.00,meteohub,2013-02-28 12:18:00,
2013-02-28 06:19:00,35.2,27.9,-100.00,NNW,333,7.0,14.0,74,0.00,,,0.00,meteohub,2013-02-28 12:19:00,
2013-02-28 06:22:00,35.2,27.9,-100.00,NNW,348,10.0,14.0,74,0.00,,,0.00,meteohub,2013-02-28 12:22:00,
2013-02-28 06:23:00,35.2,27.9,-100.00,NNW,345,5.0,14.0,74,0.00,,,0.00,meteohub,2013-02-28 12:23:00,
2013-02-28 06:24:00,35.2,27.9,-100.00,NNW,334,6.0,13.0,74,0.00,,,0.00,meteohub,2013-02-28 12:24:00,
2013-02-28 06:27:00,35.2,27.9,-100.00,NNW,348,3.0,13.0,74,0.00,,,0.00,meteohub,2013-02-28 12:27:00,
2013-02-28 06:28:00,35.2,27.9,-100.00,NNW,348,4.0,13.0,74,0.00,,,0.00,meteohub,2013-02-28 12:28:00,
2013-02-28 06:30:00,35.2,27.9,-100.00,NNW,344,7.0,13.0,74,0.00,,,0.00,meteohub,2013-02-28 12:30:00,
2013-02-28 06:33:00,35.2,27.9,-100.00,NNW,347,11.0,13.0,74,0.00,,,0.00,meteohub,2013-02-28 12:33:00,
2013-02-28 06:35:00,35.2,27.9,-100.00,NNW,348,11.0,13.0,74,0.00,,,0.00,meteohub,2013-02-28 12:35:00,
2013-02-28 06:39:00,35.2,27.9,-100.00,NNW,342,8.0,13.0,74,0.00,,,0.00,meteohub,2013-02-28 12:39:00,
2013-02-28 06:40:00,35.2,27.9,-100.00,NNW,338,9.0,13.0,74,0.00,,,0.00,meteohub,2013-02-28 12:40:00,
2013-02-28 06:44:00,35.1,27.7,-100.00,NNW,340,10.0,16.0,74,0.00,,,0.00,meteohub,2013-02-28 12:44:00,
2013-02-28 06:45:00,35.1,27.7,-100.00,NNW,336,9.0,16.0,74,0.00,,,0.00,meteohub,2013-02-28 12:45:00,
2013-02-28 06:49:00,34.9,27.5,-100.00,NNW,336,5.0,16.0,74,0.00,,,0.00,meteohub,2013-02-28 12:49:00,
2013-02-28 06:50:00,34.9,27.5,-100.00,NNW,336,6.0,16.0,74,0.00,,,0.00,meteohub,2013-02-28 12:50:00,
2013-02-28 06:54:00,34.7,27.3,-100.00,NNW,340,6.0,15.0,74,0.00,,,0.00,meteohub,2013-02-28 12:54:00,
2013-02-28 06:55:00,34.7,27.3,-100.00,NNW,334,7.0,15.0,74,0.00,,,0.00,meteohub,2013-02-28 12:55:00,
2013-02-28 06:56:00,34.7,27.3,-100.00,NNW,333,6.0,13.0,74,0.00,,,0.00,meteohub,2013-02-28 12:56:00,
2013-02-28 06:59:00,34.7,27.3,-100.00,NNW,333,9.0,13.0,74,0.00,,,0.00,meteohub,2013-02-28 12:59:00,
2013-02-28 07:00:00,34.7,27.3,-100.00,NNW,329,11.0,13.0,74,0.00,,,0.00,meteohub,2013-02-28 13:00:00,
2013-02-28 07:01:00,34.7,27.3,-100.00,NNW,339,6.0,13.0,74,0.00,,,0.00,meteohub,2013-02-28 13:01:00,
2013-02-28 07:05:00,34.9,27.5,-100.00,NNW,330,9.0,13.0,74,0.00,,,0.00,meteohub,2013-02-28 13:05:00,
2013-02-28 07:06:00,34.9,27.5,-100.00,NNW,335,10.0,12.0,74,0.00,,,0.00,meteohub,2013-02-28 13:06:00,
2013-02-28 07:10:00,34.9,27.5,-100.00,NNW,344,10.0,12.0,74,0.00,,,0.00,meteohub,2013-02-28 13:10:00,
2013-02-28 07:11:00,34.9,27.5,-100.00,NNW,340,10.0,13.0,74,0.00,,,0.00,meteohub,2013-02-28 13:11:00,
2013-02-28 07:16:00,35.1,27.7,-100.00,NNW,333,6.0,13.0,74,0.00,,,0.00,meteohub,2013-02-28 13:16:00,
2013-02-28 07:17:00,35.1,27.7,-100.00,NNW,333,10.0,13.0,74,0.00,,,0.00,meteohub,2013-02-28 13:17:00,
2013-02-28 07:21:00,35.2,27.5,-100.00,NNW,333,11.0,12.0,73,0.00,,,0.00,meteohub,2013-02-28 13:21:00,
2013-02-28 07:22:00,35.2,27.5,-100.00,NNW,338,5.0,12.0,73,0.00,,,0.00,meteohub,2013-02-28 13:22:00,
2013-02-28 07:26:00,35.6,27.5,-100.00,NNW,335,10.0,13.0,72,0.00,,,0.00,meteohub,2013-02-28 13:26:00,
2013-02-28 07:27:00,35.8,27.7,-100.00,NNW,337,6.0,13.0,72,0.00,,,0.00,meteohub,2013-02-28 13:27:00,
2013-02-28 07:31:00,36.0,27.9,-100.00,NNW,340,7.0,13.0,72,0.00,,,0.00,meteohub,2013-02-28 13:31:00,
2013-02-28 07:32:00,36.0,27.9,-100.00,NNW,340,4.0,13.0,72,0.00,,,0.00,meteohub,2013-02-28 13:32:00,
2013-02-28 07:36:00,36.3,27.9,-100.00,NNW,345,6.0,13.0,71,0.00,,,0.00,meteohub,2013-02-28 13:36:00,
2013-02-28 07:37:00,36.3,27.9,-100.00,NNW,344,4.0,13.0,71,0.00,,,0.00,meteohub,2013-02-28 13:37:00,
2013-02-28 07:38:00,36.5,28.0,-100.00,NNW,344,7.0,13.0,71,0.00,,,0.00,meteohub,2013-02-28 13:38:00,
2013-02-28 07:41:00,36.9,28.0,-100.00,North,355,5.0,13.0,70,0.00,,,0.00,meteohub,2013-02-28 13:41:00,
2013-02-28 07:42:00,36.9,28.0,-100.00,NNW,343,10.0,13.0,70,0.00,,,0.00,meteohub,2013-02-28 13:42:00,
2013-02-28 07:43:00,36.9,28.0,-100.00,NNW,344,10.0,13.0,70,0.00,,,0.00,meteohub,2013-02-28 13:43:00,
2013-02-28 07:47:00,37.2,28.0,-100.00,NNW,345,9.0,14.0,69,0.00,,,0.00,meteohub,2013-02-28 13:47:00,
2013-02-28 07:48:00,37.2,28.0,-100.00,NNW,342,11.0,14.0,69,0.00,,,0.00,meteohub,2013-02-28 13:48:00,
2013-02-28 07:52:00,37.6,28.4,-100.00,NNW,331,9.0,14.0,69,0.00,,,0.00,meteohub,2013-02-28 13:52:00,
2013-02-28 07:53:00,37.6,28.0,-100.00,North,351,7.0,14.0,68,0.00,,,0.00,meteohub,2013-02-28 13:53:00,
2013-02-28 07:57:00,37.9,28.0,-100.00,NNW,343,11.0,15.0,67,0.00,,,0.00,meteohub,2013-02-28 13:57:00,
2013-02-28 07:58:00,37.9,28.0,-100.00,NNW,346,6.0,15.0,67,0.00,,,0.00,meteohub,2013-02-28 13:58:00,
2013-02-28 08:02:00,38.1,27.9,-100.00,NNW,348,10.0,15.0,66,0.00,,,0.00,meteohub,2013-02-28 14:02:00,
2013-02-28 08:03:00,38.3,27.9,-100.00,NNW,336,7.0,15.0,66,0.00,,,0.00,meteohub,2013-02-28 14:03:00,
2013-02-28 08:04:00,38.3,27.9,-100.00,NNW,340,10.0,15.0,66,0.00,,,0.00,meteohub,2013-02-28 14:04:00,
2013-02-28 08:07:00,38.7,28.2,-100.00,North,351,12.0,17.0,66,0.00,,,0.00,meteohub,2013-02-28 14:07:00,
2013-02-28 08:08:00,38.8,28.0,-100.00,NNW,329,10.0,17.0,65,0.00,,,0.00,meteohub,2013-02-28 14:08:00,
2013-02-28 08:09:00,38.8,28.0,-100.00,NNW,329,9.0,17.0,65,0.00,,,0.00,meteohub,2013-02-28 14:09:00,
2013-02-28 08:12:00,39.0,28.2,-100.00,North,355,11.0,17.0,65,0.00,,,0.00,meteohub,2013-02-28 14:12:00,
2013-02-28 08:14:00,39.2,28.4,-100.00,North,350,7.0,17.0,65,0.00,,,0.00,meteohub,2013-02-28 14:14:00,
2013-02-28 08:17:00,39.6,28.0,-100.00,NNW,340,7.0,17.0,63,0.00,,,0.00,meteohub,2013-02-28 14:17:00,
2013-02-28 08:19:00,39.6,28.4,-100.00,NNW,331,15.0,17.0,64,0.00,,,0.00,meteohub,2013-02-28 14:19:00,
2013-02-28 08:20:00,39.6,28.4,-100.00,NNW,329,7.0,17.0,64,0.00,,,0.00,meteohub,2013-02-28 14:20:00,
2013-02-28 08:22:00,39.7,28.6,-100.00,NNW,342,7.0,17.0,64,0.00,,,0.00,meteohub,2013-02-28 14:22:00,
2013-02-28 08:24:00,39.9,28.4,-100.00,NNW,348,13.0,17.0,63,0.00,,,0.00,meteohub,2013-02-28 14:24:00,
2013-02-28 08:25:00,39.9,28.4,-100.00,NNW,346,13.0,17.0,63,0.00,,,0.00,meteohub,2013-02-28 14:25:00,
2013-02-28 08:27:00,40.1,28.6,-100.00,North,355,15.0,19.0,63,0.00,,,0.00,meteohub,2013-02-28 14:27:00,
2013-02-28 08:29:00,40.3,28.8,-100.00,North,355,11.0,19.0,63,0.00,,,0.00,meteohub,2013-02-28 14:29:00,
2013-02-28 08:30:00,40.3,28.2,-100.00,NNW,343,12.0,19.0,62,0.00,,,0.00,meteohub,2013-02-28 14:30:00,
2013-02-28 08:32:00,40.3,28.2,-100.00,NNW,345,9.0,19.0,62,0.00,,,0.00,meteohub,2013-02-28 14:32:00,
2013-02-28 08:34:00,40.5,28.4,-100.00,NNW,336,10.0,19.0,62,0.00,,,0.00,meteohub,2013-02-28 14:34:00,
2013-02-28 08:35:00,40.5,28.4,-100.00,NNW,337,17.0,19.0,62,0.00,,,0.00,meteohub,2013-02-28 14:35:00,
2013-02-28 08:37:00,40.6,28.2,-100.00,NNW,348,11.0,19.0,61,0.00,,,0.00,meteohub,2013-02-28 14:37:00,
2013-02-28 08:40:00,40.6,28.2,-100.00,North,350,13.0,19.0,61,0.00,,,0.00,meteohub,2013-02-28 14:40:00,
2013-02-28 08:43:00,40.8,28.4,-100.00,NNW,345,12.0,18.0,61,0.00,,,0.00,meteohub,2013-02-28 14:43:00,
2013-02-28 08:45:00,40.8,28.0,-100.00,NNW,334,12.0,18.0,60,0.00,,,0.00,meteohub,2013-02-28 14:45:00,
2013-02-28 08:46:00,41.2,28.4,-100.00,NNW,335,13.0,18.0,60,0.00,,,0.00,meteohub,2013-02-28 14:46:00,
2013-02-28 08:48:00,41.2,28.4,-100.00,NNW,333,13.0,18.0,60,0.00,,,0.00,meteohub,2013-02-28 14:48:00,
2013-02-28 08:50:00,41.2,28.4,-100.00,North,350,12.0,18.0,60,0.00,,,0.00,meteohub,2013-02-28 14:50:00,
2013-02-28 08:51:00,41.2,28.4,-100.00,North,349,5.0,18.0,60,0.00,,,0.00,meteohub,2013-02-28 14:51:00,
2013-02-28 08:53:00,41.5,28.8,-100.00,North,0,11.0,18.0,60,0.00,,,0.00,meteohub,2013-02-28 14:53:00,
2013-02-28 08:55:00,41.5,28.2,-100.00,North,5,10.0,18.0,59,0.00,,,0.00,meteohub,2013-02-28 14:55:00,
2013-02-28 08:56:00,41.5,28.2,-100.00,North,9,12.0,18.0,59,0.00,,,0.00,meteohub,2013-02-28 14:56:00,
2013-02-28 08:58:00,41.7,28.4,-100.00,NNE,17,8.0,18.0,59,0.00,,,0.00,meteohub,2013-02-28 14:58:00,
2013-02-28 09:01:00,42.1,29.1,-100.00,NNW,337,10.0,18.0,60,0.00,,,0.00,meteohub,2013-02-28 15:01:00,
2013-02-28 09:04:00,42.3,28.6,-100.00,NW,325,12.0,18.0,58,0.00,,,0.00,meteohub,2013-02-28 15:04:00,
2013-02-28 09:06:00,42.3,28.0,-100.00,NNW,331,9.0,16.0,57,0.00,,,0.00,meteohub,2013-02-28 15:06:00,
2013-02-28 09:09:00,42.3,28.6,-100.00,NW,326,12.0,16.0,58,0.00,,,0.00,meteohub,2013-02-28 15:09:00,
2013-02-28 09:11:00,42.3,27.7,-100.00,NNW,333,15.0,17.0,56,0.00,,,0.00,meteohub,2013-02-28 15:11:00,
2013-02-28 09:13:00,42.3,28.0,-100.00,NNW,347,14.0,17.0,57,0.00,,,0.00,meteohub,2013-02-28 15:13:00,
2013-02-28 09:15:00,42.3,28.6,-100.00,NNW,337,16.0,17.0,58,0.00,,,0.00,meteohub,2013-02-28 15:15:00,
2013-02-28 09:16:00,42.3,28.6,-100.00,NNW,337,10.0,19.0,58,0.00,,,0.00,meteohub,2013-02-28 15:16:00,
2013-02-28 09:18:00,42.3,28.6,-100.00,NNW,348,12.0,19.0,58,0.00,,,0.00,meteohub,2013-02-28 15:18:00,
2013-02-28 09:20:00,42.4,28.2,-100.00,NNW,344,7.0,19.0,57,0.00,,,0.00,meteohub,2013-02-28 15:20:00,
2013-02-28 09:21:00,42.6,28.9,-100.00,NNW,331,11.0,19.0,58,0.00,,,0.00,meteohub,2013-02-28 15:21:00,
2013-02-28 09:23:00,42.8,28.6,-100.00,North,355,10.0,19.0,57,0.00,,,0.00,meteohub,2013-02-28 15:23:00,
2013-02-28 09:26:00,42.8,28.6,-100.00,NNW,347,5.0,19.0,57,0.00,,,0.00,meteohub,2013-02-28 15:26:00,
2013-02-28 09:27:00,43.0,29.3,-100.00,North,355,10.0,19.0,58,0.00,,,0.00,meteohub,2013-02-28 15:27:00,
2013-02-28 09:29:00,43.0,28.4,-100.00,NNW,335,12.0,19.0,56,0.00,,,0.00,meteohub,2013-02-28 15:29:00,
2013-02-28 09:31:00,43.2,28.6,-100.00,NNW,346,13.0,19.0,56,0.00,,,0.00,meteohub,2013-02-28 15:31:00,
2013-02-28 09:32:00,43.2,28.6,-100.00,NNW,348,11.0,16.0,56,0.00,,,0.00,meteohub,2013-02-28 15:32:00,
2013-02-28 09:33:00,43.2,28.6,-100.00,North,355,10.0,16.0,56,0.00,,,0.00,meteohub,2013-02-28 15:33:00,
2013-02-28 09:34:00,43.2,28.6,-100.00,NNW,331,7.0,16.0,56,0.00,,,0.00,meteohub,2013-02-28 15:34:00,
2013-02-28 09:36:00,43.3,28.8,-100.00,NNW,343,8.0,19.0,56,0.00,,,0.00,meteohub,2013-02-28 15:36:00,
2013-02-28 09:37:00,43.5,28.4,-100.00,NNW,342,7.0,19.0,55,0.00,,,0.00,meteohub,2013-02-28 15:37:00,
2013-02-28 09:38:00,43.5,28.4,-100.00,NNW,339,9.0,19.0,55,0.00,,,0.00,meteohub,2013-02-28 15:38:00,
2013-02-28 09:39:00,43.5,28.4,-100.00,NNW,336,11.0,19.0,55,0.00,,,0.00,meteohub,2013-02-28 15:39:00,
2013-02-28 09:41:00,43.9,28.8,-100.00,NW,325,6.0,19.0,55,0.00,,,0.00,meteohub,2013-02-28 15:41:00,
2013-02-28 09:42:00,43.9,28.4,-100.00,NW,314,9.0,19.0,54,0.00,,,0.00,meteohub,2013-02-28 15:42:00,
2013-02-28 09:43:00,43.9,28.4,-100.00,NNW,334,8.0,19.0,54,0.00,,,0.00,meteohub,2013-02-28 15:43:00,
2013-02-28 09:44:00,43.5,28.4,-100.00,NNW,333,7.0,19.0,55,0.00,,,0.00,meteohub,2013-02-28 15:44:00,
2013-02-28 09:47:00,43.9,29.1,-100.00,North,355,10.0,17.0,56,0.00,,,0.00,meteohub,2013-02-28 15:47:00,
2013-02-28 09:48:00,43.9,29.1,-100.00,North,0,9.0,17.0,56,0.00,,,0.00,meteohub,2013-02-28 15:48:00,
2013-02-28 09:50:00,44.2,29.1,-100.00,North,9,12.0,17.0,55,0.00,,,0.00,meteohub,2013-02-28 15:50:00,
2013-02-28 09:53:00,44.2,27.7,-100.00,NW,311,3.0,17.0,52,0.00,,,0.00,meteohub,2013-02-28 15:53:00,
2013-02-28 09:54:00,44.2,28.2,-100.00,NW,306,6.0,17.0,53,0.00,,,0.00,meteohub,2013-02-28 15:54:00,
2013-02-28 09:55:00,44.2,28.6,-100.00,NNW,329,12.0,17.0,54,0.00,,,0.00,meteohub,2013-02-28 15:55:00,
2013-02-28 09:58:00,44.2,29.1,-100.00,NNW,338,11.0,14.0,55,0.00,,,0.00,meteohub,2013-02-28 15:58:00,
2013-02-28 09:59:00,44.2,28.6,-100.00,NNW,336,9.0,14.0,54,0.00,,,0.00,meteohub,2013-02-28 15:59:00,
2013-02-28 10:00:00,44.2,28.6,-100.00,NNW,338,10.0,14.0,54,0.00,,,0.00,meteohub,2013-02-28 16:00:00,
2013-02-28 10:03:00,44.4,27.9,-100.00,NNW,327,12.0,14.0,52,0.00,,,0.00,meteohub,2013-02-28 16:03:00,
2013-02-28 10:04:00,44.6,28.6,-100.00,NW,324,4.0,14.0,53,0.00,,,0.00,meteohub,2013-02-28 16:04:00,
2013-02-28 10:06:00,44.4,27.0,-100.00,NW,317,7.0,14.0,50,0.00,,,0.00,meteohub,2013-02-28 16:06:00,
2013-02-28 10:08:00,44.4,27.5,-100.00,NW,315,13.0,14.0,51,0.00,,,0.00,meteohub,2013-02-28 16:08:00,
2013-02-28 10:09:00,44.4,27.9,-100.00,NW,322,9.0,14.0,52,0.00,,,0.00,meteohub,2013-02-28 16:09:00,
2013-02-28 10:11:00,44.4,27.5,-100.00,NNW,335,10.0,17.0,51,0.00,,,0.00,meteohub,2013-02-28 16:11:00,
2013-02-28 10:14:00,44.6,28.0,-100.00,NW,324,13.0,17.0,52,0.00,,,0.00,meteohub,2013-02-28 16:14:00,
2013-02-28 10:15:00,44.8,27.3,-100.00,NNW,333,5.0,17.0,50,0.00,,,0.00,meteohub,2013-02-28 16:15:00,
2013-02-28 10:17:00,44.8,27.3,-100.00,NW,321,9.0,17.0,50,0.00,,,0.00,meteohub,2013-02-28 16:17:00,
2013-02-28 10:19:00,45.1,27.7,-100.00,NW,313,13.0,17.0,50,0.00,,,0.00,meteohub,2013-02-28 16:19:00,
2013-02-28 10:20:00,45.1,27.7,-100.00,NW,309,10.0,17.0,50,0.00,,,0.00,meteohub,2013-02-28 16:20:00,
2013-02-28 10:22:00,45.1,27.7,-100.00,North,355,6.0,17.0,50,0.00,,,0.00,meteohub,2013-02-28 16:22:00,
2013-02-28 10:24:00,45.3,27.3,-100.00,NW,309,12.0,17.0,49,0.00,,,0.00,meteohub,2013-02-28 16:24:00,
2013-02-28 10:25:00,45.3,26.2,-100.00,NW,313,11.0,17.0,47,0.00,,,0.00,meteohub,2013-02-28 16:25:00,
2013-02-28 10:27:00,45.3,26.2,-100.00,WNW,302,9.0,18.0,47,0.00,,,0.00,meteohub,2013-02-28 16:27:00,
2013-02-28 10:29:00,45.1,26.1,-100.00,NW,318,10.0,18.0,47,0.00,,,0.00,meteohub,2013-02-28 16:29:00,
2013-02-28 10:30:00,45.3,27.9,-100.00,NNW,328,12.0,18.0,50,0.00,,,0.00,meteohub,2013-02-28 16:30:00,
2013-02-28 10:32:00,45.3,27.3,-100.00,NW,322,14.0,18.0,49,0.00,,,0.00,meteohub,2013-02-28 16:32:00,
2013-02-28 10:34:00,45.5,26.4,-100.00,NNW,342,13.0,18.0,47,0.00,,,0.00,meteohub,2013-02-28 16:34:00,
2013-02-28 10:35:00,45.5,27.5,-100.00,NNW,339,9.0,18.0,49,0.00,,,0.00,meteohub,2013-02-28 16:35:00,
2013-02-28 10:36:00,45.7,27.1,-100.00,NW,324,12.0,19.0,48,0.00,,,0.00,meteohub,2013-02-28 16:36:00,
2013-02-28 10:37:00,45.7,27.1,-100.00,NW,325,17.0,19.0,48,0.00,,,0.00,meteohub,2013-02-28 16:37:00,
2013-02-28 10:40:00,45.9,27.3,-100.00,NW,314,12.0,19.0,48,0.00,,,0.00,meteohub,2013-02-28 16:40:00,
2013-02-28 10:42:00,46.0,27.0,-100.00,NW,323,12.0,19.0,47,0.00,,,0.00,meteohub,2013-02-28 16:42:00,
2013-02-28 10:45:00,46.4,27.3,-100.00,North,351,9.0,19.0,47,0.00,,,0.00,meteohub,2013-02-28 16:45:00,
2013-02-28 10:47:00,46.8,27.1,-100.00,NNW,329,10.0,19.0,46,0.00,,,0.00,meteohub,2013-02-28 16:47:00,
2013-02-28 10:48:00,46.8,27.1,-100.00,NNW,333,11.0,19.0,46,0.00,,,0.00,meteohub,2013-02-28 16:48:00,
2013-02-28 10:50:00,46.8,27.7,-100.00,NW,304,12.0,19.0,47,0.00,,,0.00,meteohub,2013-02-28 16:50:00,
2013-02-28 10:52:00,46.6,27.0,-100.00,NNW,336,15.0,19.0,46,0.00,,,0.00,meteohub,2013-02-28 16:52:00,
2013-02-28 10:53:00,46.6,27.0,-100.00,NNW,333,13.0,19.0,46,0.00,,,0.00,meteohub,2013-02-28 16:53:00,
2013-02-28 10:55:00,46.6,27.0,-100.00,NNW,330,4.0,19.0,46,0.00,,,0.00,meteohub,2013-02-28 16:55:00,
2013-02-28 10:57:00,46.6,26.4,-100.00,NW,325,9.0,19.0,45,0.00,,,0.00,meteohub,2013-02-28 16:57:00,
2013-02-28 10:58:00,46.8,27.1,-100.00,NNW,327,5.0,19.0,46,0.00,,,0.00,meteohub,2013-02-28 16:58:00,
2013-02-28 11:00:00,46.8,27.1,-100.00,NNW,345,13.0,19.0,46,0.00,,,0.00,meteohub,2013-02-28 17:00:00,
2013-02-28 11:02:00,46.9,27.7,-100.00,NNW,327,11.0,19.0,47,0.00,,,0.00,meteohub,2013-02-28 17:02:00,
2013-02-28 11:03:00,47.1,27.9,-100.00,NNW,343,13.0,19.0,47,0.00,,,0.00,meteohub,2013-02-28 17:03:00,
2013-02-28 11:05:00,47.5,27.7,-100.00,NNW,328,10.0,19.0,46,0.00,,,0.00,meteohub,2013-02-28 17:05:00,
2013-02-28 11:07:00,47.7,27.9,-100.00,NNW,327,7.0,19.0,46,0.00,,,0.00,meteohub,2013-02-28 17:07:00,
2013-02-28 11:08:00,47.7,27.3,-100.00,NW,319,11.0,19.0,45,0.00,,,0.00,meteohub,2013-02-28 17:08:00,
2013-02-28 11:09:00,47.7,27.3,-100.00,NNW,338,11.0,19.0,45,0.00,,,0.00,meteohub,2013-02-28 17:09:00,
2013-02-28 11:10:00,47.8,27.5,-100.00,NNW,338,15.0,19.0,45,0.00,,,0.00,meteohub,2013-02-28 17:10:00,
2013-02-28 11:12:00,47.8,27.0,-100.00,NNW,339,15.0,17.0,44,0.00,,,0.00,meteohub,2013-02-28 17:12:00,
2013-02-28 11:13:00,47.8,27.0,-100.00,North,0,9.0,17.0,44,0.00,,,0.00,meteohub,2013-02-28 17:13:00,
2013-02-28 11:14:00,47.8,27.0,-100.00,North,349,13.0,17.0,44,0.00,,,0.00,meteohub,2013-02-28 17:14:00,
2013-02-28 11:16:00,48.0,27.7,-100.00,WNW,303,11.0,18.0,45,0.00,,,0.00,meteohub,2013-02-28 17:16:00,
2013-02-28 11:17:00,48.0,27.7,-100.00,NW,313,10.0,18.0,45,0.00,,,0.00,meteohub,2013-02-28 17:17:00,
2013-02-28 11:18:00,48.0,27.7,-100.00,NNW,329,12.0,18.0,45,0.00,,,0.00,meteohub,2013-02-28 17:18:00,
2013-02-28 11:19:00,47.7,26.8,-100.00,NW,307,8.0,18.0,44,0.00,,,0.00,meteohub,2013-02-28 17:19:00,
2013-02-28 11:21:00,47.7,27.3,-100.00,NNW,331,14.0,18.0,45,0.00,,,0.00,meteohub,2013-02-28 17:21:00,
2013-02-28 11:22:00,47.5,27.7,-100.00,NNW,340,10.0,18.0,46,0.00,,,0.00,meteohub,2013-02-28 17:22:00,
2013-02-28 11:24:00,47.5,27.7,-100.00,NNW,339,11.0,18.0,46,0.00,,,0.00,meteohub,2013-02-28 17:24:00,
2013-02-28 11:25:00,47.7,28.9,-100.00,NNW,330,7.0,18.0,48,0.00,,,0.00,meteohub,2013-02-28 17:25:00,
2013-02-28 11:26:00,47.7,28.9,-100.00,NNW,345,12.0,18.0,48,0.00,,,0.00,meteohub,2013-02-28 17:26:00,
2013-02-28 11:28:00,48.2,28.4,-100.00,NNW,342,5.0,18.0,46,0.00,,,0.00,meteohub,2013-02-28 17:28:00,
2013-02-28 11:29:00,48.4,29.7,-100.00,NNW,333,10.0,18.0,48,0.00,,,0.00,meteohub,2013-02-28 17:29:00,
2013-02-28 11:30:00,48.6,28.8,-100.00,NW,325,5.0,18.0,46,0.00,,,0.00,meteohub,2013-02-28 17:30:00,
2013-02-28 11:32:00,48.7,29.5,-100.00,NW,315,7.0,18.0,47,0.00,,,0.00,meteohub,2013-02-28 17:32:00,
2013-02-28 11:33:00,48.7,26.6,-100.00,NW,315,10.0,18.0,42,0.00,,,0.00,meteohub,2013-02-28 17:33:00,
2013-02-28 11:34:00,48.6,27.1,-100.00,NNW,329,11.0,18.0,43,0.00,,,0.00,meteohub,2013-02-28 17:34:00,
2013-02-28 11:35:00,48.6,28.2,-100.00,NNW,328,7.0,18.0,45,0.00,,,0.00,meteohub,2013-02-28 17:35:00,
2013-02-28 11:37:00,48.6,28.2,-100.00,NW,321,7.0,17.0,45,0.00,,,0.00,meteohub,2013-02-28 17:37:00,
2013-02-28 11:38:00,48.7,27.9,-100.00,NW,317,9.0,17.0,44,0.00,,,0.00,meteohub,2013-02-28 17:38:00,
2013-02-28 11:39:00,48.6,28.2,-100.00,WNW,299,13.0,17.0,45,0.00,,,0.00,meteohub,2013-02-28 17:39:00,
2013-02-28 11:40:00,48.6,27.1,-100.00,NNW,344,12.0,17.0,43,0.00,,,0.00,meteohub,2013-02-28 17:40:00,
2013-02-28 11:42:00,48.6,27.7,-100.00,NW,305,10.0,17.0,44,0.00,,,0.00,meteohub,2013-02-28 17:42:00,
2013-02-28 11:43:00,48.4,27.5,-100.00,NW,306,20.0,20.0,44,0.00,,,0.00,meteohub,2013-02-28 17:43:00,
2013-02-28 11:44:00,48.6,28.2,-100.00,NNW,348,13.0,17.0,45,0.00,,,0.00,meteohub,2013-02-28 17:44:00,
2013-02-28 11:46:00,48.6,27.7,-100.00,NW,324,5.0,17.0,44,0.00,,,0.00,meteohub,2013-02-28 17:46:00,
2013-02-28 11:47:00,48.6,28.2,-100.00,NW,308,16.0,17.0,45,0.00,,,0.00,meteohub,2013-02-28 17:47:00,
2013-02-28 11:48:00,48.7,28.4,-100.00,NNW,330,5.0,17.0,45,0.00,,,0.00,meteohub,2013-02-28 17:48:00,
2013-02-28 11:49:00,48.9,29.1,-100.00,NNW,340,12.0,17.0,46,0.00,,,0.00,meteohub,2013-02-28 17:49:00,
2013-02-28 11:51:00,49.1,28.8,-100.00,NW,309,10.0,20.0,45,0.00,,,0.00,meteohub,2013-02-28 17:51:00,
2013-02-28 11:52:00,49.3,27.7,-100.00,NNW,333,12.0,20.0,43,0.00,,,0.00,meteohub,2013-02-28 17:52:00,
2013-02-28 11:54:00,49.3,27.7,-100.00,NNW,331,12.0,20.0,43,0.00,,,0.00,meteohub,2013-02-28 17:54:00,
2013-02-28 11:55:00,49.3,28.2,-100.00,NNW,336,10.0,20.0,44,0.00,,,0.00,meteohub,2013-02-28 17:55:00,
2013-02-28 11:56:00,49.3,29.3,-100.00,NW,324,10.0,20.0,46,0.00,,,0.00,meteohub,2013-02-28 17:56:00,
2013-02-28 11:58:00,49.3,29.3,-100.00,NNW,338,12.0,20.0,46,0.00,,,0.00,meteohub,2013-02-28 17:58:00,
2013-02-28 11:59:00,49.5,29.5,-100.00,NNW,338,11.0,20.0,46,0.00,,,0.00,meteohub,2013-02-28 17:59:00,
2013-02-28 12:00:00,49.5,28.9,-100.00,NW,313,9.0,20.0,45,0.00,,,0.00,meteohub,2013-02-28 18:00:00,
2013-02-28 12:01:00,49.5,27.3,-100.00,NNW,340,14.0,18.0,42,0.00,,,0.00,meteohub,2013-02-28 18:01:00,
2013-02-28 12:03:00,49.5,27.9,-100.00,NW,309,6.0,18.0,43,0.00,,,0.00,meteohub,2013-02-28 18:03:00,
2013-02-28 12:04:00,49.5,28.9,-100.00,NNW,327,9.0,18.0,45,0.00,,,0.00,meteohub,2013-02-28 18:04:00,
2013-02-28 12:05:00,49.5,28.9,-100.00,NW,326,10.0,18.0,45,0.00,,,0.00,meteohub,2013-02-28 18:05:00,
2013-02-28 12:07:00,49.8,27.7,-100.00,NNW,336,14.0,18.0,42,0.00,,,0.00,meteohub,2013-02-28 18:07:00,
2013-02-28 12:08:00,49.8,27.7,-100.00,NW,305,10.0,18.0,42,0.00,,,0.00,meteohub,2013-02-28 18:08:00,
2013-02-28 12:09:00,49.8,27.7,-100.00,NW,313,7.0,18.0,42,0.00,,,0.00,meteohub,2013-02-28 18:09:00,
2013-02-28 12:10:00,49.8,27.7,-100.00,NW,321,19.0,19.0,42,0.00,,,0.00,meteohub,2013-02-28 18:10:00,
2013-02-28 12:12:00,50.2,28.6,-100.00,NNW,340,12.0,17.0,43,0.00,,,0.00,meteohub,2013-02-28 18:12:00,
2013-02-28 12:13:00,50.2,28.0,-100.00,NNW,333,11.0,17.0,42,0.00,,,0.00,meteohub,2013-02-28 18:13:00,
2013-02-28 12:14:00,50.2,28.0,-100.00,NW,313,9.0,17.0,42,0.00,,,0.00,meteohub,2013-02-28 18:14:00,
2013-02-28 12:15:00,50.2,28.0,-100.00,NNW,327,12.0,17.0,42,0.00,,,0.00,meteohub,2013-02-28 18:15:00,
2013-02-28 12:17:00,50.2,28.0,-100.00,NW,320,14.0,17.0,42,0.00,,,0.00,meteohub,2013-02-28 18:17:00,
2013-02-28 12:18:00,50.2,28.6,-100.00,NNW,342,10.0,22.0,43,0.00,,,0.00,meteohub,2013-02-28 18:18:00,
2013-02-28 12:20:00,50.4,28.8,-100.00,NNW,333,19.0,22.0,43,0.00,,,0.00,meteohub,2013-02-28 18:20:00,
2013-02-28 12:22:00,50.5,27.1,-100.00,NW,307,13.0,22.0,40,0.00,,,0.00,meteohub,2013-02-28 18:22:00,
2013-02-28 12:24:00,50.4,28.2,-100.00,NNW,342,12.0,22.0,42,0.00,,,0.00,meteohub,2013-02-28 18:24:00,
2013-02-28 12:25:00,50.4,28.2,-100.00,North,355,14.0,22.0,42,0.00,,,0.00,meteohub,2013-02-28 18:25:00,
2013-02-28 12:26:00,50.4,28.2,-100.00,North,355,15.0,22.0,42,0.00,,,0.00,meteohub,2013-02-28 18:26:00,
2013-02-28 12:28:00,50.5,27.7,-100.00,NNW,344,11.0,20.0,41,0.00,,,0.00,meteohub,2013-02-28 18:28:00,
2013-02-28 12:29:00,50.7,27.9,-100.00,NNW,333,16.0,20.0,41,0.00,,,0.00,meteohub,2013-02-28 18:29:00,
2013-02-28 12:30:00,51.1,28.2,-100.00,NW,320,10.0,20.0,41,0.00,,,0.00,meteohub,2013-02-28 18:30:00,
2013-02-28 12:31:00,51.1,28.2,-100.00,NNW,327,11.0,20.0,41,0.00,,,0.00,meteohub,2013-02-28 18:31:00,
2013-02-28 12:33:00,51.1,28.2,-100.00,NNW,338,10.0,20.0,41,0.00,,,0.00,meteohub,2013-02-28 18:33:00,
2013-02-28 12:34:00,51.1,28.2,-100.00,NNW,333,14.0,20.0,41,0.00,,,0.00,meteohub,2013-02-28 18:34:00,
2013-02-28 12:35:00,51.1,27.7,-100.00,NNW,330,11.0,20.0,40,0.00,,,0.00,meteohub,2013-02-28 18:35:00,
2013-02-28 12:36:00,51.1,27.7,-100.00,NNW,338,13.0,22.0,40,0.00,,,0.00,meteohub,2013-02-28 18:36:00,
2013-02-28 12:38:00,51.1,28.8,-100.00,NNW,333,17.0,22.0,42,0.00,,,0.00,meteohub,2013-02-28 18:38:00,
2013-02-28 12:39:00,51.1,27.7,-100.00,NNW,347,11.0,22.0,40,0.00,,,0.00,meteohub,2013-02-28 18:39:00,
2013-02-28 12:41:00,51.1,28.8,-100.00,North,0,12.0,22.0,42,0.00,,,0.00,meteohub,2013-02-28 18:41:00,
2013-02-28 12:43:00,51.1,28.2,-100.00,NW,322,10.0,22.0,41,0.00,,,0.00,meteohub,2013-02-28 18:43:00,
2013-02-28 12:44:00,51.1,27.7,-100.00,WNW,294,15.0,22.0,40,0.00,,,0.00,meteohub,2013-02-28 18:44:00,
2013-02-28 12:46:00,51.1,27.7,-100.00,NW,326,14.0,19.0,40,0.00,,,0.00,meteohub,2013-02-28 18:46:00,
2013-02-28 12:48:00,51.3,27.7,-100.00,NW,309,10.0,19.0,40,0.00,,,0.00,meteohub,2013-02-28 18:48:00,
2013-02-28 12:50:00,51.3,27.7,-100.00,NNW,333,12.0,19.0,40,0.00,,,0.00,meteohub,2013-02-28 18:50:00,
2013-02-28 12:51:00,51.3,27.7,-100.00,NNW,338,9.0,20.0,40,0.00,,,0.00,meteohub,2013-02-28 18:51:00,
2013-02-28 12:53:00,51.3,27.7,-100.00,North,350,8.0,20.0,40,0.00,,,0.00,meteohub,2013-02-28 18:53:00,
2013-02-28 12:55:00,51.4,28.6,-100.00,NNW,343,16.0,20.0,41,0.00,,,0.00,meteohub,2013-02-28 18:55:00,
2013-02-28 12:57:00,51.4,27.9,-100.00,NNW,340,4.0,20.0,40,0.00,,,0.00,meteohub,2013-02-28 18:57:00,
2013-02-28 12:58:00,51.6,28.8,-100.00,NNW,340,13.0,20.0,41,0.00,,,0.00,meteohub,2013-02-28 18:58:00,
2013-02-28 13:00:00,52.0,27.9,-100.00,NNW,338,6.0,20.0,39,0.00,,,0.00,meteohub,2013-02-28 19:00:00,
2013-02-28 13:02:00,52.0,28.9,-100.00,North,355,9.0,20.0,41,0.00,,,0.00,meteohub,2013-02-28 19:02:00,
2013-02-28 13:03:00,52.3,28.8,-100.00,NW,316,16.0,20.0,40,0.00,,,0.00,meteohub,2013-02-28 19:03:00,
2013-02-28 13:05:00,52.5,27.0,-100.00,NW,313,11.0,20.0,37,0.00,,,0.00,meteohub,2013-02-28 19:05:00,
2013-02-28 13:07:00,52.3,27.5,-100.00,NW,325,14.0,19.0,38,0.00,,,0.00,meteohub,2013-02-28 19:07:00,
2013-02-28 13:08:00,52.2,26.6,-100.00,NW,311,6.0,19.0,37,0.00,,,0.00,meteohub,2013-02-28 19:08:00,
2013-02-28 13:11:00,52.2,27.3,-100.00,North,355,13.0,19.0,38,0.00,,,0.00,meteohub,2013-02-28 19:11:00,
2013-02-28 13:12:00,52.2,27.3,-100.00,NNW,339,10.0,18.0,38,0.00,,,0.00,meteohub,2013-02-28 19:12:00,
2013-02-28 13:13:00,52.3,27.5,-100.00,North,355,14.0,18.0,38,0.00,,,0.00,meteohub,2013-02-28 19:13:00,
2013-02-28 13:16:00,52.5,26.2,-100.00,NNW,331,14.0,19.0,36,0.00,,,0.00,meteohub,2013-02-28 19:16:00,
2013-02-28 13:17:00,52.3,26.2,-100.00,NW,319,10.0,19.0,36,0.00,,,0.00,meteohub,2013-02-28 19:17:00,
2013-02-28 13:18:00,52.3,26.2,-100.00,NNW,327,13.0,19.0,36,0.00,,,0.00,meteohub,2013-02-28 19:18:00,
2013-02-28 13:21:00,52.5,27.7,-100.00,NW,321,15.0,19.0,38,0.00,,,0.00,meteohub,2013-02-28 19:21:00,
2013-02-28 13:23:00,52.5,27.0,-100.00,NW,320,5.0,19.0,37,0.00,,,0.00,meteohub,2013-02-28 19:23:00,
2013-02-28 13:24:00,52.5,27.7,-100.00,NW,321,7.0,19.0,38,0.00,,,0.00,meteohub,2013-02-28 19:24:00,
2013-02-28 13:26:00,52.5,28.9,-100.00,North,355,11.0,20.0,40,0.00,,,0.00,meteohub,2013-02-28 19:26:00,
2013-02-28 13:28:00,52.9,28.0,-100.00,NW,317,14.0,20.0,38,0.00,,,0.00,meteohub,2013-02-28 19:28:00,
2013-02-28 13:29:00,52.9,27.3,-100.00,NW,319,15.0,20.0,37,0.00,,,0.00,meteohub,2013-02-28 19:29:00,
2013-02-28 13:31:00,52.9,26.6,-100.00,NNW,329,6.0,20.0,36,0.00,,,0.00,meteohub,2013-02-28 19:31:00,
2013-02-28 13:33:00,52.9,26.6,-100.00,NW,308,14.0,20.0,36,0.00,,,0.00,meteohub,2013-02-28 19:33:00,
2013-02-28 13:34:00,52.9,26.6,-100.00,NW,307,6.0,20.0,36,0.00,,,0.00,meteohub,2013-02-28 19:34:00,
2013-02-28 13:37:00,52.9,28.0,-100.00,NNW,327,13.0,19.0,38,0.00,,,0.00,meteohub,2013-02-28 19:37:00,
2013-02-28 13:38:00,53.1,26.8,-100.00,NNW,344,14.0,19.0,36,0.00,,,0.00,meteohub,2013-02-28 19:38:00,
2013-02-28 13:39:00,53.1,26.8,-100.00,NNW,340,13.0,19.0,36,0.00,,,0.00,meteohub,2013-02-28 19:39:00,
2013-02-28 13:42:00,53.2,27.0,-100.00,NW,322,7.0,19.0,36,0.00,,,0.00,meteohub,2013-02-28 19:42:00,
2013-02-28 13:43:00,53.4,26.4,-100.00,North,0,12.0,19.0,35,0.00,,,0.00,meteohub,2013-02-28 19:43:00,
2013-02-28 13:44:00,53.4,26.4,-100.00,NW,321,15.0,19.0,35,0.00,,,0.00,meteohub,2013-02-28 19:44:00,
2013-02-28 13:47:00,53.8,26.8,-100.00,NNW,335,10.0,19.0,35,0.00,,,0.00,meteohub,2013-02-28 19:47:00,
2013-02-28 13:49:00,54.0,27.7,-100.00,NNW,337,12.0,19.0,36,0.00,,,0.00,meteohub,2013-02-28 19:49:00,
2013-02-28 13:52:00,54.3,25.9,-100.00,North,10,15.0,19.0,33,0.00,,,0.00,meteohub,2013-02-28 19:52:00,
2013-02-28 13:54:00,54.3,25.9,-100.00,NNW,339,14.0,19.0,33,0.00,,,0.00,meteohub,2013-02-28 19:54:00,
2013-02-28 13:57:00,54.3,26.6,-100.00,NNW,333,7.0,19.0,34,0.00,,,0.00,meteohub,2013-02-28 19:57:00,
2013-02-28 13:59:00,54.5,25.2,-100.00,NNW,329,15.0,19.0,32,0.00,,,0.00,meteohub,2013-02-28 19:59:00,
2013-02-28 14:00:00,54.5,24.4,-100.00,NW,306,13.0,19.0,31,0.00,,,0.00,meteohub,2013-02-28 20:00:00,
2013-02-28 14:03:00,54.3,25.9,-100.00,NNW,327,14.0,20.0,33,0.00,,,0.00,meteohub,2013-02-28 20:03:00,
2013-02-28 14:05:00,54.3,25.9,-100.00,NW,317,13.0,20.0,33,0.00,,,0.00,meteohub,2013-02-28 20:05:00,
2013-02-28 14:06:00,54.3,25.9,-100.00,NNW,327,13.0,21.0,33,0.00,,,0.00,meteohub,2013-02-28 20:06:00,
2013-02-28 14:08:00,54.3,24.3,-100.00,NNW,331,12.0,21.0,31,0.00,,,0.00,meteohub,2013-02-28 20:08:00,
2013-02-28 14:10:00,54.3,24.3,-100.00,NNW,337,10.0,21.0,31,0.00,,,0.00,meteohub,2013-02-28 20:10:00,
2013-02-28 14:11:00,54.3,26.6,-100.00,NNW,329,13.0,21.0,34,0.00,,,0.00,meteohub,2013-02-28 20:11:00,
2013-02-28 14:14:00,54.5,25.2,-100.00,NW,305,10.0,21.0,32,0.00,,,0.00,meteohub,2013-02-28 20:14:00,
2013-02-28 14:15:00,54.5,25.2,-100.00,NW,325,5.0,21.0,32,0.00,,,0.00,meteohub,2013-02-28 20:15:00,
2013-02-28 14:16:00,54.5,26.1,-100.00,NW,313,11.0,21.0,33,0.00,,,0.00,meteohub,2013-02-28 20:16:00,
2013-02-28 14:19:00,54.5,24.4,-100.00,NNW,338,7.0,21.0,31,0.00,,,0.00,meteohub,2013-02-28 20:19:00,
2013-02-28 14:20:00,54.5,26.1,-100.00,WNW,303,10.0,21.0,33,0.00,,,0.00,meteohub,2013-02-28 20:20:00,
2013-02-28 14:21:00,54.5,25.2,-100.00,NW,319,14.0,21.0,32,0.00,,,0.00,meteohub,2013-02-28 20:21:00,
2013-02-28 14:24:00,54.9,24.8,-100.00,NNW,343,12.0,19.0,31,0.00,,,0.00,meteohub,2013-02-28 20:24:00,
2013-02-28 14:26:00,55.0,25.0,-100.00,NW,319,11.0,19.0,31,0.00,,,0.00,meteohub,2013-02-28 20:26:00,
2013-02-28 14:30:00,55.0,23.4,-100.00,NNW,336,13.0,19.0,29,0.00,,,0.00,meteohub,2013-02-28 20:30:00,
2013-02-28 14:31:00,55.0,25.0,-100.00,NNW,340,9.0,19.0,31,0.00,,,0.00,meteohub,2013-02-28 20:31:00,
2013-02-28 14:32:00,55.0,25.7,-100.00,NW,323,21.0,21.0,32,0.00,,,0.00,meteohub,2013-02-28 20:32:00,
2013-02-28 14:35:00,55.4,23.7,-100.00,NNW,334,11.0,19.0,29,0.00,,,0.00,meteohub,2013-02-28 20:35:00,
2013-02-28 14:36:00,55.4,23.7,-100.00,NNW,328,15.0,21.0,29,0.00,,,0.00,meteohub,2013-02-28 20:36:00,
2013-02-28 14:37:00,55.4,23.7,-100.00,NNW,329,16.0,21.0,29,0.00,,,0.00,meteohub,2013-02-28 20:37:00,
2013-02-28 14:40:00,55.6,25.3,-100.00,NNW,331,9.0,21.0,31,0.00,,,0.00,meteohub,2013-02-28 20:40:00,
2013-02-28 14:41:00,55.6,23.9,-100.00,NNW,336,6.0,21.0,29,0.00,,,0.00,meteohub,2013-02-28 20:41:00,
2013-02-28 14:42:00,55.8,24.8,-100.00,NNW,344,22.0,22.0,30,0.00,,,0.00,meteohub,2013-02-28 20:42:00,
2013-02-28 14:46:00,55.9,25.7,-100.00,NNW,327,13.0,22.0,31,0.00,,,0.00,meteohub,2013-02-28 20:46:00,
2013-02-28 14:47:00,56.1,23.4,-100.00,NNW,336,9.0,22.0,28,0.00,,,0.00,meteohub,2013-02-28 20:47:00,
2013-02-28 14:51:00,56.1,24.3,-100.00,NNW,338,10.0,22.0,29,0.00,,,0.00,meteohub,2013-02-28 20:51:00,
2013-02-28 14:52:00,56.1,24.3,-100.00,NNW,337,12.0,22.0,29,0.00,,,0.00,meteohub,2013-02-28 20:52:00,
2013-02-28 14:56:00,56.5,25.3,-100.00,NNW,340,16.0,22.0,30,0.00,,,0.00,meteohub,2013-02-28 20:56:00,
2013-02-28 14:57:00,56.5,25.3,-100.00,NNW,342,13.0,22.0,30,0.00,,,0.00,meteohub,2013-02-28 20:57:00,
2013-02-28 15:02:00,56.7,23.9,-100.00,NNW,333,16.0,22.0,28,0.00,,,0.00,meteohub,2013-02-28 21:02:00,
2013-02-28 15:07:00,56.7,27.1,-100.00,NW,314,15.0,20.0,32,0.00,,,0.00,meteohub,2013-02-28 21:07:00,
2013-02-28 15:08:00,56.5,24.6,-100.00,WNW,303,10.0,20.0,29,0.00,,,0.00,meteohub,2013-02-28 21:08:00,
2013-02-28 15:12:00,55.9,25.7,-100.00,NW,324,4.0,20.0,31,0.00,,,0.00,meteohub,2013-02-28 21:12:00,
2013-02-28 15:13:00,55.9,27.3,-100.00,NW,307,7.0,20.0,33,0.00,,,0.00,meteohub,2013-02-28 21:13:00,
2013-02-28 15:17:00,56.5,26.2,-100.00,NNW,340,11.0,20.0,31,0.00,,,0.00,meteohub,2013-02-28 21:17:00,
2013-02-28 15:18:00,56.7,27.1,-100.00,NW,326,12.0,20.0,32,0.00,,,0.00,meteohub,2013-02-28 21:18:00,
2013-02-28 15:23:00,56.7,25.5,-100.00,NNW,346,13.0,21.0,30,0.00,,,0.00,meteohub,2013-02-28 21:23:00,
2013-02-28 15:24:00,56.8,26.6,-100.00,North,350,16.0,21.0,31,0.00,,,0.00,meteohub,2013-02-28 21:24:00,
2013-02-28 15:28:00,56.7,27.1,-100.00,NNW,334,7.0,21.0,32,0.00,,,0.00,meteohub,2013-02-28 21:28:00,
2013-02-28 15:29:00,56.7,26.4,-100.00,WNW,283,10.0,21.0,31,0.00,,,0.00,meteohub,2013-02-28 21:29:00,
2013-02-28 15:33:00,56.7,25.5,-100.00,NNW,334,12.0,21.0,30,0.00,,,0.00,meteohub,2013-02-28 21:33:00,
2013-02-28 15:34:00,56.7,25.5,-100.00,NW,315,9.0,21.0,30,0.00,,,0.00,meteohub,2013-02-28 21:34:00,
2013-02-28 15:38:00,56.7,25.5,-100.00,NNW,335,14.0,19.0,30,0.00,,,0.00,meteohub,2013-02-28 21:38:00,
2013-02-28 15:39:00,56.7,25.5,-100.00,NNW,343,16.0,19.0,30,0.00,,,0.00,meteohub,2013-02-28 21:39:00,
2013-02-28 15:43:00,56.7,26.4,-100.00,NNW,339,14.0,20.0,31,0.00,,,0.00,meteohub,2013-02-28 21:43:00,
2013-02-28 15:44:00,56.7,25.5,-100.00,NNW,336,8.0,20.0,30,0.00,,,0.00,meteohub,2013-02-28 21:44:00,
2013-02-28 15:48:00,56.7,24.8,-100.00,NNW,338,9.0,22.0,29,0.00,,,0.00,meteohub,2013-02-28 21:48:00,
2013-02-28 15:49:00,56.8,26.6,-100.00,NNW,340,7.0,22.0,31,0.00,,,0.00,meteohub,2013-02-28 21:49:00,
2013-02-28 15:50:00,57.0,26.6,-100.00,NNW,333,9.0,22.0,31,0.00,,,0.00,meteohub,2013-02-28 21:50:00,
2013-02-28 15:54:00,57.0,24.3,-100.00,NW,309,9.0,22.0,28,0.00,,,0.00,meteohub,2013-02-28 21:54:00,
2013-02-28 15:55:00,57.0,25.0,-100.00,NNW,333,16.0,22.0,29,0.00,,,0.00,meteohub,2013-02-28 21:55:00,
2013-02-28 15:59:00,57.2,24.4,-100.00,NW,319,7.0,22.0,28,0.00,,,0.00,meteohub,2013-02-28 21:59:00,
2013-02-28 16:00:00,57.2,23.5,-100.00,NW,305,11.0,22.0,27,0.00,,,0.00,meteohub,2013-02-28 22:00:00,
2013-02-28 16:04:00,57.0,25.0,-100.00,NW,326,17.0,20.0,29,0.00,,,0.00,meteohub,2013-02-28 22:04:00,
2013-02-28 16:05:00,57.0,25.0,-100.00,NW,325,15.0,20.0,29,0.00,,,0.00,meteohub,2013-02-28 22:05:00,
2013-02-28 16:09:00,56.8,24.1,-100.00,NW,323,18.0,22.0,28,0.00,,,0.00,meteohub,2013-02-28 22:09:00,
2013-02-28 16:10:00,56.8,24.1,-100.00,NW,316,7.0,22.0,28,0.00,,,0.00,meteohub,2013-02-28 22:10:00,
2013-02-28 16:12:00,56.8,24.1,-100.00,NW,324,12.0,25.0,28,0.00,,,0.00,meteohub,2013-02-28 22:12:00,
2013-02-28 16:14:00,56.7,23.9,-100.00,NNW,327,13.0,25.0,28,0.00,,,0.00,meteohub,2013-02-28 22:14:00,
2013-02-28 16:15:00,56.7,24.8,-100.00,NNW,331,10.0,25.0,29,0.00,,,0.00,meteohub,2013-02-28 22:15:00,
2013-02-28 16:16:00,56.7,24.8,-100.00,NW,325,11.0,25.0,29,0.00,,,0.00,meteohub,2013-02-28 22:16:00,
2013-02-28 16:17:00,56.8,25.7,-100.00,NW,323,17.0,25.0,30,0.00,,,0.00,meteohub,2013-02-28 22:17:00,
2013-02-28 16:21:00,56.8,25.0,-100.00,NNW,336,16.0,25.0,29,0.00,,,0.00,meteohub,2013-02-28 22:21:00,
2013-02-28 16:23:00,56.8,24.1,-100.00,NNW,340,13.0,25.0,28,0.00,,,0.00,meteohub,2013-02-28 22:23:00,
2013-02-28 16:26:00,56.8,24.1,-100.00,North,355,9.0,21.0,28,0.00,,,0.00,meteohub,2013-02-28 22:26:00,
2013-02-28 16:28:00,57.0,24.3,-100.00,NNW,344,13.0,21.0,28,0.00,,,0.00,meteohub,2013-02-28 22:28:00,
2013-02-28 16:31:00,57.0,24.3,-100.00,NNW,337,11.0,21.0,28,0.00,,,0.00,meteohub,2013-02-28 22:31:00,
2013-02-28 16:32:00,57.0,24.3,-100.00,North,0,13.0,21.0,28,0.00,,,0.00,meteohub,2013-02-28 22:32:00,
2013-02-28 16:33:00,56.8,24.1,-100.00,NNW,329,14.0,21.0,28,0.00,,,0.00,meteohub,2013-02-28 22:33:00,
2013-02-28 16:36:00,56.8,24.1,-100.00,NNW,347,9.0,22.0,28,0.00,,,0.00,meteohub,2013-02-28 22:36:00,
2013-02-28 16:37:00,56.8,25.0,-100.00,NNW,336,9.0,22.0,29,0.00,,,0.00,meteohub,2013-02-28 22:37:00,
2013-02-28 16:38:00,56.8,25.0,-100.00,NNW,329,10.0,22.0,29,0.00,,,0.00,meteohub,2013-02-28 22:38:00,
2013-02-28 16:41:00,57.0,24.3,-100.00,NNW,329,13.0,22.0,28,0.00,,,0.00,meteohub,2013-02-28 22:41:00,
2013-02-28 16:42:00,57.0,24.3,-100.00,NW,325,14.0,22.0,28,0.00,,,0.00,meteohub,2013-02-28 22:42:00,
2013-02-28 16:43:00,56.8,24.1,-100.00,NNW,329,12.0,22.0,28,0.00,,,0.00,meteohub,2013-02-28 22:43:00,
2013-02-28 16:46:00,56.7,23.9,-100.00,NNW,335,20.0,20.0,28,0.00,,,0.00,meteohub,2013-02-28 22:46:00,
2013-02-28 16:47:00,56.7,23.0,-100.00,NNW,329,18.0,19.0,27,0.00,,,0.00,meteohub,2013-02-28 22:47:00,
2013-02-28 16:48:00,56.7,23.9,-100.00,NNW,327,20.0,20.0,28,0.00,,,0.00,meteohub,2013-02-28 22:48:00,
2013-02-28 16:52:00,56.5,22.8,-100.00,NNW,329,18.0,24.0,27,0.00,,,0.00,meteohub,2013-02-28 22:52:00,
2013-02-28 16:53:00,56.5,23.7,-100.00,NNW,346,13.0,24.0,28,0.00,,,0.00,meteohub,2013-02-28 22:53:00,
2013-02-28 16:57:00,56.3,23.5,-100.00,NNW,328,11.0,24.0,28,0.00,,,0.00,meteohub,2013-02-28 22:57:00,
2013-02-28 16:58:00,56.3,24.4,-100.00,NNW,331,12.0,24.0,29,0.00,,,0.00,meteohub,2013-02-28 22:58:00,
2013-02-28 17:02:00,56.5,24.6,-100.00,NW,323,15.0,24.0,29,0.00,,,0.00,meteohub,2013-02-28 23:02:00,
2013-02-28 17:03:00,56.5,23.7,-100.00,NNW,344,9.0,24.0,28,0.00,,,0.00,meteohub,2013-02-28 23:03:00,
2013-02-28 17:04:00,56.5,24.6,-100.00,NNW,338,10.0,24.0,29,0.00,,,0.00,meteohub,2013-02-28 23:04:00,
2013-02-28 17:07:00,56.5,23.7,-100.00,NNW,337,13.0,21.0,28,0.00,,,0.00,meteohub,2013-02-28 23:07:00,
2013-02-28 17:08:00,56.5,24.6,-100.00,NW,319,11.0,21.0,29,0.00,,,0.00,meteohub,2013-02-28 23:08:00,
2013-02-28 17:12:00,56.5,24.6,-100.00,North,351,9.0,20.0,29,0.00,,,0.00,meteohub,2013-02-28 23:12:00,
2013-02-28 17:13:00,56.5,24.6,-100.00,NNW,327,16.0,20.0,29,0.00,,,0.00,meteohub,2013-02-28 23:13:00,
2013-02-28 17:17:00,56.5,23.7,-100.00,NNW,333,17.0,19.0,28,0.00,,,0.00,meteohub,2013-02-28 23:17:00,
2013-02-28 17:18:00,56.5,23.7,-100.00,NW,320,15.0,19.0,28,0.00,,,0.00,meteohub,2013-02-28 23:18:00,
2013-02-28 17:22:00,56.3,24.4,-100.00,NNW,333,11.0,19.0,29,0.00,,,0.00,meteohub,2013-02-28 23:22:00,
2013-02-28 17:23:00,56.1,24.3,-100.00,NW,323,10.0,19.0,29,0.00,,,0.00,meteohub,2013-02-28 23:23:00,
2013-02-28 17:27:00,55.9,24.1,-100.00,NNW,328,17.0,19.0,29,0.00,,,0.00,meteohub,2013-02-28 23:27:00,
2013-02-28 17:28:00,55.9,23.4,-100.00,NNW,327,8.0,19.0,28,0.00,,,0.00,meteohub,2013-02-28 23:28:00,
2013-02-28 17:29:00,55.9,24.1,-100.00,NW,324,15.0,19.0,29,0.00,,,0.00,meteohub,2013-02-28 23:29:00,
2013-02-28 17:33:00,55.8,23.2,-100.00,North,351,11.0,22.0,28,0.00,,,0.00,meteohub,2013-02-28 23:33:00,
2013-02-28 17:34:00,55.8,23.2,-100.00,NNW,336,10.0,22.0,28,0.00,,,0.00,meteohub,2013-02-28 23:34:00,
2013-02-28 17:35:00,55.6,23.0,-100.00,North,351,11.0,22.0,28,0.00,,,0.00,meteohub,2013-02-28 23:35:00,
2013-02-28 17:38:00,55.4,22.8,-100.00,NNW,338,11.0,22.0,28,0.00,,,0.00,meteohub,2013-02-28 23:38:00,
2013-02-28 17:39:00,55.4,22.8,-100.00,NNW,334,12.0,22.0,28,0.00,,,0.00,meteohub,2013-02-28 23:39:00,
2013-02-28 17:40:00,55.2,22.6,-100.00,NW,321,12.0,22.0,28,0.00,,,0.00,meteohub,2013-02-28 23:40:00,
2013-02-28 17:43:00,55.2,22.6,-100.00,NNW,338,16.0,20.0,28,0.00,,,0.00,meteohub,2013-02-28 23:43:00,
2013-02-28 17:44:00,55.2,23.5,-100.00,NW,304,12.0,20.0,29,0.00,,,0.00,meteohub,2013-02-28 23:44:00,
2013-02-28 17:46:00,55.2,22.6,-100.00,NNW,327,11.0,20.0,28,0.00,,,0.00,meteohub,2013-02-28 23:46:00,
2013-02-28 17:49:00,55.2,22.6,-100.00,NW,325,17.0,20.0,28,0.00,,,0.00,meteohub,2013-02-28 23:49:00,
2013-02-28 17:51:00,55.2,22.6,-100.00,NW,322,15.0,20.0,28,0.00,,,0.00,meteohub,2013-02-28 23:51:00,
2013-02-28 17:54:00,55.2,22.6,-100.00,NW,320,15.0,22.0,28,0.00,,,0.00,meteohub,2013-02-28 23:54:00,
2013-02-28 17:56:00,55.0,23.4,-100.00,NNW,338,9.0,22.0,29,0.00,,,0.00,meteohub,2013-02-28 23:56:00,
2013-02-28 17:59:00,55.0,24.1,-100.00,NNW,334,7.0,22.0,30,0.00,,,0.00,meteohub,2013-02-28 23:59:00,
2013-02-28 18:00:00,55.0,24.1,-100.00,NW,326,15.0,22.0,30,0.00,,,0.00,meteohub,2013-03-01 00:00:00,
2013-02-28 18:01:00,54.9,23.2,-100.00,NNW,338,12.0,22.0,29,0.00,,,0.00,meteohub,2013-03-01 00:01:00,
2013-02-28 18:04:00,54.7,21.4,-100.00,North,0,13.0,22.0,27,0.00,,,0.00,meteohub,2013-03-01 00:04:00,
2013-02-28 18:05:00,54.7,23.0,-100.00,NNW,342,9.0,22.0,29,0.00,,,0.00,meteohub,2013-03-01 00:05:00,
2013-02-28 18:06:00,54.7,23.0,-100.00,NNW,344,9.0,19.0,29,0.00,,,0.00,meteohub,2013-03-01 00:06:00,
2013-02-28 18:10:00,54.5,22.1,-100.00,NNW,344,9.0,19.0,28,0.00,,,0.00,meteohub,2013-03-01 00:10:00,
2013-02-28 18:11:00,54.5,22.8,-100.00,NNW,336,15.0,15.0,29,0.00,,,0.00,meteohub,2013-03-01 00:11:00,
2013-02-28 18:12:00,54.5,22.8,-100.00,NNW,329,15.0,15.0,29,0.00,,,0.00,meteohub,2013-03-01 00:12:00,
2013-02-28 18:15:00,54.3,22.6,-100.00,NNW,347,7.0,15.0,29,0.00,,,0.00,meteohub,2013-03-01 00:15:00,
2013-02-28 18:17:00,54.1,22.6,-100.00,NNW,343,6.0,18.0,29,0.00,,,0.00,meteohub,2013-03-01 00:17:00,
2013-02-28 18:18:00,54.1,23.4,-100.00,NNW,346,6.0,18.0,30,0.00,,,0.00,meteohub,2013-03-01 00:18:00,
2013-02-28 18:20:00,54.0,23.2,-100.00,NNW,344,7.0,18.0,30,0.00,,,0.00,meteohub,2013-03-01 00:20:00,
2013-02-28 18:22:00,53.8,22.3,-100.00,North,351,9.0,18.0,29,0.00,,,0.00,meteohub,2013-03-01 00:22:00,
2013-02-28 18:23:00,53.6,22.1,-100.00,North,351,9.0,18.0,29,0.00,,,0.00,meteohub,2013-03-01 00:23:00,
2013-02-28 18:25:00,53.4,21.9,-100.00,North,350,6.0,18.0,29,0.00,,,0.00,meteohub,2013-03-01 00:25:00,
2013-02-28 18:27:00,53.2,21.7,-100.00,North,9,12.0,18.0,29,0.00,,,0.00,meteohub,2013-03-01 00:27:00,
2013-02-28 18:28:00,53.2,21.7,-100.00,North,351,12.0,18.0,29,0.00,,,0.00,meteohub,2013-03-01 00:28:00,
2013-02-28 18:30:00,53.2,21.0,-100.00,NNW,344,14.0,18.0,28,0.00,,,0.00,meteohub,2013-03-01 00:30:00,
2013-02-28 18:32:00,53.2,20.1,-100.00,NNW,343,10.0,16.0,27,0.00,,,0.00,meteohub,2013-03-01 00:32:00,
2013-02-28 18:33:00,53.2,21.0,-100.00,NNW,347,10.0,16.0,28,0.00,,,0.00,meteohub,2013-03-01 00:33:00,
2013-02-28 18:35:00,53.2,21.0,-100.00,North,355,9.0,16.0,28,0.00,,,0.00,meteohub,2013-03-01 00:35:00,
2013-02-28 18:37:00,53.1,20.8,-100.00,North,0,10.0,16.0,28,0.00,,,0.00,meteohub,2013-03-01 00:37:00,
2013-02-28 18:38:00,53.1,20.8,-100.00,NNW,344,10.0,16.0,28,0.00,,,0.00,meteohub,2013-03-01 00:38:00,
2013-02-28 18:39:00,53.1,20.8,-100.00,NNW,346,7.0,16.0,28,0.00,,,0.00,meteohub,2013-03-01 00:39:00,
2013-02-28 18:40:00,53.1,21.6,-100.00,NNW,346,7.0,16.0,29,0.00,,,0.00,meteohub,2013-03-01 00:40:00,
2013-02-28 18:42:00,52.9,21.6,-100.00,North,350,9.0,16.0,29,0.00,,,0.00,meteohub,2013-03-01 00:42:00,
2013-02-28 18:43:00,52.9,21.6,-100.00,NNW,348,7.0,16.0,29,0.00,,,0.00,meteohub,2013-03-01 00:43:00,
2013-02-28 18:44:00,52.9,21.6,-100.00,North,355,7.0,16.0,29,0.00,,,0.00,meteohub,2013-03-01 00:44:00,
2013-02-28 18:46:00,52.5,21.9,-100.00,North,349,7.0,16.0,30,0.00,,,0.00,meteohub,2013-03-01 00:46:00,
2013-02-28 18:48:00,52.5,21.9,-100.00,North,350,6.0,16.0,30,0.00,,,0.00,meteohub,2013-03-01 00:48:00,
2013-02-28 18:49:00,52.3,22.6,-100.00,North,350,4.0,16.0,31,0.00,,,0.00,meteohub,2013-03-01 00:49:00,
2013-02-28 18:51:00,52.2,22.5,-100.00,North,350,6.0,16.0,31,0.00,,,0.00,meteohub,2013-03-01 00:51:00,
2013-02-28 18:53:00,52.0,22.3,-100.00,North,350,4.0,16.0,31,0.00,,,0.00,meteohub,2013-03-01 00:53:00,
2013-02-28 18:54:00,52.0,22.3,-100.00,North,350,5.0,16.0,31,0.00,,,0.00,meteohub,2013-03-01 00:54:00,
2013-02-28 18:56:00,51.6,21.9,-100.00,North,351,5.0,15.0,31,0.00,,,0.00,meteohub,2013-03-01 00:56:00,
2013-02-28 18:58:00,51.4,21.7,-100.00,North,355,6.0,15.0,31,0.00,,,0.00,meteohub,2013-03-01 00:58:00,
2013-02-28 18:59:00,51.4,21.7,-100.00,North,9,9.0,15.0,31,0.00,,,0.00,meteohub,2013-03-01 00:59:00,
2013-02-28 19:01:00,51.3,21.6,-100.00,North,351,8.0,12.0,31,0.00,,,0.00,meteohub,2013-03-01 01:01:00,
2013-02-28 19:03:00,51.3,22.5,-100.00,North,0,8.0,12.0,32,0.00,,,0.00,meteohub,2013-03-01 01:03:00,
2013-02-28 19:05:00,51.3,22.5,-100.00,North,355,6.0,12.0,32,0.00,,,0.00,meteohub,2013-03-01 01:05:00,
2013-02-28 19:06:00,51.1,22.3,-100.00,North,0,5.0,12.0,32,0.00,,,0.00,meteohub,2013-03-01 01:06:00,
2013-02-28 19:08:00,51.1,23.0,-100.00,North,0,6.0,12.0,33,0.00,,,0.00,meteohub,2013-03-01 01:08:00,
2013-02-28 19:10:00,51.1,23.0,-100.00,North,5,6.0,12.0,33,0.00,,,0.00,meteohub,2013-03-01 01:10:00,
2013-02-28 19:11:00,50.7,22.6,-100.00,North,5,5.0,12.0,33,0.00,,,0.00,meteohub,2013-03-01 01:11:00,
2013-02-28 19:13:00,50.7,22.6,-100.00,North,0,6.0,12.0,33,0.00,,,0.00,meteohub,2013-03-01 01:13:00,
2013-02-28 19:15:00,50.7,23.4,-100.00,North,0,6.0,12.0,34,0.00,,,0.00,meteohub,2013-03-01 01:15:00,
2013-02-28 19:16:00,50.5,23.2,-100.00,North,0,6.0,12.0,34,0.00,,,0.00,meteohub,2013-03-01 01:16:00,
2013-02-28 19:17:00,50.5,23.2,-100.00,North,5,5.0,12.0,34,0.00,,,0.00,meteohub,2013-03-01 01:17:00,
2013-02-28 19:18:00,50.4,23.7,-100.00,North,5,6.0,12.0,35,0.00,,,0.00,meteohub,2013-03-01 01:18:00,
2013-02-28 19:21:00,50.2,23.5,-100.00,North,0,6.0,12.0,35,0.00,,,0.00,meteohub,2013-03-01 01:21:00,
2013-02-28 19:22:00,50.2,23.5,-100.00,North,0,9.0,12.0,35,0.00,,,0.00,meteohub,2013-03-01 01:22:00,
2013-02-28 19:24:00,49.8,23.2,-100.00,North,350,6.0,12.0,35,0.00,,,0.00,meteohub,2013-03-01 01:24:00,
2013-02-28 19:26:00,49.8,23.2,-100.00,North,0,10.0,12.0,35,0.00,,,0.00,meteohub,2013-03-01 01:26:00,
2013-02-28 19:27:00,49.8,23.2,-100.00,North,0,10.0,12.0,35,0.00,,,0.00,meteohub,2013-03-01 01:27:00,
2013-02-28 19:30:00,49.6,23.2,-100.00,North,355,9.0,12.0,35,0.00,,,0.00,meteohub,2013-03-01 01:30:00,
2013-02-28 19:31:00,49.6,23.2,-100.00,North,0,9.0,11.0,35,0.00,,,0.00,meteohub,2013-03-01 01:31:00,
2013-02-28 19:32:00,49.5,23.0,-100.00,North,355,6.0,11.0,35,0.00,,,0.00,meteohub,2013-03-01 01:32:00,
2013-02-28 19:35:00,49.5,23.0,-100.00,North,355,6.0,11.0,35,0.00,,,0.00,meteohub,2013-03-01 01:35:00,
2013-02-28 19:37:00,49.5,23.0,-100.00,North,355,7.0,11.0,35,0.00,,,0.00,meteohub,2013-03-01 01:37:00,
2013-02-28 19:41:00,49.5,23.0,-100.00,North,349,11.0,13.0,35,0.00,,,0.00,meteohub,2013-03-01 01:41:00,
2013-02-28 19:42:00,49.5,23.0,-100.00,North,355,7.0,13.0,35,0.00,,,0.00,meteohub,2013-03-01 01:42:00,
2013-02-28 19:43:00,49.5,23.0,-100.00,North,355,5.0,13.0,35,0.00,,,0.00,meteohub,2013-03-01 01:43:00,
2013-02-28 19:46:00,49.6,22.5,-100.00,North,355,7.0,13.0,34,0.00,,,0.00,meteohub,2013-03-01 01:46:00,
2013-02-28 19:47:00,49.5,22.3,-100.00,North,350,10.0,13.0,34,0.00,,,0.00,meteohub,2013-03-01 01:47:00,
2013-02-28 19:48:00,49.5,22.3,-100.00,North,0,13.0,13.0,34,0.00,,,0.00,meteohub,2013-03-01 01:48:00,
2013-02-28 19:52:00,49.5,22.3,-100.00,North,355,9.0,14.0,34,0.00,,,0.00,meteohub,2013-03-01 01:52:00,
2013-02-28 19:53:00,49.5,22.3,-100.00,NNW,344,10.0,14.0,34,0.00,,,0.00,meteohub,2013-03-01 01:53:00,
2013-02-28 19:57:00,49.5,22.3,-100.00,North,350,8.0,14.0,34,0.00,,,0.00,meteohub,2013-03-01 01:57:00,
2013-02-28 19:58:00,49.3,22.1,-100.00,North,350,7.0,14.0,34,0.00,,,0.00,meteohub,2013-03-01 01:58:00,
2013-02-28 20:02:00,48.9,22.5,-100.00,NNW,347,6.0,14.0,35,0.00,,,0.00,meteohub,2013-03-01 02:02:00,
2013-02-28 20:03:00,48.9,22.5,-100.00,NNW,348,7.0,14.0,35,0.00,,,0.00,meteohub,2013-03-01 02:03:00,
2013-02-28 20:04:00,48.7,22.3,-100.00,NNW,345,12.0,14.0,35,0.00,,,0.00,meteohub,2013-03-01 02:04:00,
2013-02-28 20:07:00,48.7,21.6,-100.00,NNW,345,5.0,14.0,34,0.00,,,0.00,meteohub,2013-03-01 02:07:00,
2013-02-28 20:08:00,48.7,22.3,-100.00,NNW,344,6.0,14.0,35,0.00,,,0.00,meteohub,2013-03-01 02:08:00,
2013-02-28 20:10:00,48.6,22.1,-100.00,North,349,10.0,12.0,35,0.00,,,0.00,meteohub,2013-03-01 02:10:00,
2013-02-28 20:12:00,48.6,22.1,-100.00,North,350,5.0,12.0,35,0.00,,,0.00,meteohub,2013-03-01 02:12:00,
2013-02-28 20:13:00,48.6,22.1,-100.00,North,355,7.0,12.0,35,0.00,,,0.00,meteohub,2013-03-01 02:13:00,
2013-02-28 20:16:00,48.6,22.1,-100.00,North,355,10.0,13.0,35,0.00,,,0.00,meteohub,2013-03-01 02:16:00,
2013-02-28 20:17:00,48.6,21.4,-100.00,NNW,347,6.0,13.0,34,0.00,,,0.00,meteohub,2013-03-01 02:17:00,
2013-02-28 20:18:00,48.6,22.1,-100.00,NNW,346,11.0,13.0,35,0.00,,,0.00,meteohub,2013-03-01 02:18:00,
2013-02-28 20:19:00,48.6,22.1,-100.00,North,355,8.0,13.0,35,0.00,,,0.00,meteohub,2013-03-01 02:19:00,
2013-02-28 20:21:00,48.6,22.1,-100.00,NNW,345,5.0,16.0,35,0.00,,,0.00,meteohub,2013-03-01 02:21:00,
2013-02-28 20:23:00,48.6,22.1,-100.00,NNW,344,6.0,16.0,35,0.00,,,0.00,meteohub,2013-03-01 02:23:00,
2013-02-28 20:24:00,48.4,21.9,-100.00,NNW,346,7.0,16.0,35,0.00,,,0.00,meteohub,2013-03-01 02:24:00,
2013-02-28 20:26:00,48.4,21.9,-100.00,NNW,345,12.0,16.0,35,0.00,,,0.00,meteohub,2013-03-01 02:26:00,
2013-02-28 20:28:00,48.4,21.9,-100.00,NNW,340,11.0,16.0,35,0.00,,,0.00,meteohub,2013-03-01 02:28:00,
2013-02-28 20:29:00,48.4,21.9,-100.00,North,355,11.0,16.0,35,0.00,,,0.00,meteohub,2013-03-01 02:29:00,
2013-02-28 20:32:00,48.2,21.7,-100.00,North,350,6.0,16.0,35,0.00,,,0.00,meteohub,2013-03-01 02:32:00,
2013-02-28 20:33:00,48.2,21.7,-100.00,North,0,9.0,16.0,35,0.00,,,0.00,meteohub,2013-03-01 02:33:00,
2013-02-28 20:34:00,48.2,21.7,-100.00,North,355,10.0,16.0,35,0.00,,,0.00,meteohub,2013-03-01 02:34:00,
2013-02-28 20:37:00,48.2,21.7,-100.00,NNW,346,9.0,13.0,35,0.00,,,0.00,meteohub,2013-03-01 02:37:00,
2013-02-28 20:38:00,48.0,21.7,-100.00,North,355,8.0,13.0,35,0.00,,,0.00,meteohub,2013-03-01 02:38:00,
2013-02-28 20:39:00,48.0,22.3,-100.00,NNW,344,10.0,13.0,36,0.00,,,0.00,meteohub,2013-03-01 02:39:00,
2013-02-28 20:42:00,48.0,22.3,-100.00,NNW,344,7.0,13.0,36,0.00,,,0.00,meteohub,2013-03-01 02:42:00,
2013-02-28 20:44:00,47.8,22.8,-100.00,NNW,344,5.0,13.0,37,0.00,,,0.00,meteohub,2013-03-01 02:44:00,
2013-02-28 20:45:00,47.8,22.8,-100.00,North,350,5.0,13.0,37,0.00,,,0.00,meteohub,2013-03-01 02:45:00,
2013-02-28 20:48:00,47.7,22.6,-100.00,North,351,7.0,13.0,37,0.00,,,0.00,meteohub,2013-03-01 02:48:00,
2013-02-28 20:49:00,47.7,22.6,-100.00,North,351,6.0,13.0,37,0.00,,,0.00,meteohub,2013-03-01 02:49:00,
2013-02-28 20:50:00,47.7,22.6,-100.00,North,351,7.0,13.0,37,0.00,,,0.00,meteohub,2013-03-01 02:50:00,
2013-02-28 20:53:00,47.5,22.5,-100.00,North,351,10.0,13.0,37,0.00,,,0.00,meteohub,2013-03-01 02:53:00,
2013-02-28 20:54:00,47.5,23.2,-100.00,NNW,348,7.0,13.0,38,0.00,,,0.00,meteohub,2013-03-01 02:54:00,
2013-02-28 20:55:00,47.5,23.2,-100.00,North,355,5.0,13.0,38,0.00,,,0.00,meteohub,2013-03-01 02:55:00,
2013-02-28 20:58:00,47.3,23.0,-100.00,North,355,7.0,13.0,38,0.00,,,0.00,meteohub,2013-03-01 02:58:00,
2013-02-28 20:59:00,47.3,23.0,-100.00,North,355,4.0,13.0,38,0.00,,,0.00,meteohub,2013-03-01 02:59:00,
2013-02-28 21:00:00,47.1,22.8,-100.00,North,355,7.0,13.0,38,0.00,,,0.00,meteohub,2013-03-01 03:00:00,
2013-02-28 21:04:00,47.1,22.8,-100.00,North,355,6.0,13.0,38,0.00,,,0.00,meteohub,2013-03-01 03:04:00,
2013-02-28 21:05:00,46.9,22.6,-100.00,North,355,9.0,13.0,38,0.00,,,0.00,meteohub,2013-03-01 03:05:00,
2013-02-28 21:09:00,46.9,22.6,-100.00,North,355,5.0,12.0,38,0.00,,,0.00,meteohub,2013-03-01 03:09:00,
2013-02-28 21:10:00,46.8,23.2,-100.00,North,355,8.0,12.0,39,0.00,,,0.00,meteohub,2013-03-01 03:10:00,
2013-02-28 21:15:00,46.8,23.2,-100.00,North,355,6.0,12.0,39,0.00,,,0.00,meteohub,2013-03-01 03:15:00,
2013-02-28 21:20:00,46.6,23.0,-100.00,North,349,9.0,11.0,39,0.00,,,0.00,meteohub,2013-03-01 03:20:00,
2013-02-28 21:25:00,46.4,22.8,-100.00,North,0,6.0,13.0,39,0.00,,,0.00,meteohub,2013-03-01 03:25:00,
2013-02-28 21:26:00,46.4,22.8,-100.00,North,0,4.0,13.0,39,0.00,,,0.00,meteohub,2013-03-01 03:26:00,
2013-02-28 21:30:00,46.4,23.4,-100.00,North,355,7.0,13.0,40,0.00,,,0.00,meteohub,2013-03-01 03:30:00,
2013-02-28 21:31:00,46.4,23.4,-100.00,North,355,6.0,13.0,40,0.00,,,0.00,meteohub,2013-03-01 03:31:00,
2013-02-28 21:36:00,46.2,23.2,-100.00,North,355,9.0,13.0,40,0.00,,,0.00,meteohub,2013-03-01 03:36:00,
2013-02-28 21:37:00,46.2,23.2,-100.00,North,355,6.0,13.0,40,0.00,,,0.00,meteohub,2013-03-01 03:37:00,
2013-02-28 21:41:00,46.2,23.9,-100.00,North,0,6.0,13.0,41,0.00,,,0.00,meteohub,2013-03-01 03:41:00,
2013-02-28 21:42:00,46.2,23.9,-100.00,North,351,7.0,13.0,41,0.00,,,0.00,meteohub,2013-03-01 03:42:00,
2013-02-28 21:46:00,46.2,23.9,-100.00,North,351,7.0,14.0,41,0.00,,,0.00,meteohub,2013-03-01 03:46:00,
2013-02-28 21:47:00,46.2,23.9,-100.00,North,0,9.0,14.0,41,0.00,,,0.00,meteohub,2013-03-01 03:47:00,
2013-02-28 21:48:00,46.0,23.7,-100.00,North,355,10.0,14.0,41,0.00,,,0.00,meteohub,2013-03-01 03:48:00,
2013-02-28 21:51:00,46.0,23.7,-100.00,North,355,7.0,14.0,41,0.00,,,0.00,meteohub,2013-03-01 03:51:00,
2013-02-28 21:52:00,46.0,24.3,-100.00,North,355,11.0,14.0,42,0.00,,,0.00,meteohub,2013-03-01 03:52:00,
2013-02-28 21:53:00,46.0,23.7,-100.00,North,355,5.0,14.0,41,0.00,,,0.00,meteohub,2013-03-01 03:53:00,
2013-02-28 21:56:00,45.9,24.1,-100.00,North,351,7.0,14.0,42,0.00,,,0.00,meteohub,2013-03-01 03:56:00,
2013-02-28 21:57:00,45.7,23.9,-100.00,North,351,8.0,14.0,42,0.00,,,0.00,meteohub,2013-03-01 03:57:00,
2013-02-28 21:58:00,45.7,23.9,-100.00,NNW,345,8.0,14.0,42,0.00,,,0.00,meteohub,2013-03-01 03:58:00,
2013-02-28 22:01:00,45.5,23.7,-100.00,North,351,12.0,13.0,42,0.00,,,0.00,meteohub,2013-03-01 04:01:00,
2013-02-28 22:03:00,45.3,23.5,-100.00,North,350,6.0,13.0,42,0.00,,,0.00,meteohub,2013-03-01 04:03:00,
2013-02-28 22:06:00,45.3,23.5,-100.00,North,349,6.0,13.0,42,0.00,,,0.00,meteohub,2013-03-01 04:06:00,
2013-02-28 22:08:00,45.1,23.4,-100.00,North,349,9.0,13.0,42,0.00,,,0.00,meteohub,2013-03-01 04:08:00,
2013-02-28 22:09:00,45.1,23.4,-100.00,North,349,5.0,13.0,42,0.00,,,0.00,meteohub,2013-03-01 04:09:00,
2013-02-28 22:11:00,45.1,23.4,-100.00,North,350,9.0,13.0,42,0.00,,,0.00,meteohub,2013-03-01 04:11:00,
2013-02-28 22:12:00,45.1,23.4,-100.00,North,350,7.0,13.0,42,0.00,,,0.00,meteohub,2013-03-01 04:12:00,
2013-02-28 22:14:00,45.1,23.4,-100.00,NNW,348,7.0,13.0,42,0.00,,,0.00,meteohub,2013-03-01 04:14:00,
2013-02-28 22:15:00,45.1,23.4,-100.00,North,355,6.0,13.0,42,0.00,,,0.00,meteohub,2013-03-01 04:15:00,
2013-02-28 22:16:00,45.1,23.4,-100.00,North,355,9.0,13.0,42,0.00,,,0.00,meteohub,2013-03-01 04:16:00,
2013-02-28 22:17:00,45.1,23.4,-100.00,NNW,348,7.0,13.0,42,0.00,,,0.00,meteohub,2013-03-01 04:17:00,
2013-02-28 22:19:00,45.0,23.2,-100.00,North,350,5.0,13.0,42,0.00,,,0.00,meteohub,2013-03-01 04:19:00,
2013-02-28 22:20:00,45.0,23.2,-100.00,North,350,7.0,13.0,42,0.00,,,0.00,meteohub,2013-03-01 04:20:00,
2013-02-28 22:21:00,45.0,23.2,-100.00,North,350,10.0,11.0,42,0.00,,,0.00,meteohub,2013-03-01 04:21:00,
2013-02-28 22:23:00,45.0,23.2,-100.00,North,350,6.0,11.0,42,0.00,,,0.00,meteohub,2013-03-01 04:23:00,
2013-02-28 22:24:00,44.8,23.0,-100.00,North,355,5.0,11.0,42,0.00,,,0.00,meteohub,2013-03-01 04:24:00,
2013-02-28 22:25:00,44.8,23.0,-100.00,North,355,5.0,11.0,42,0.00,,,0.00,meteohub,2013-03-01 04:25:00,
2013-02-28 22:27:00,44.8,23.0,-100.00,North,351,4.0,11.0,42,0.00,,,0.00,meteohub,2013-03-01 04:27:00,
2013-02-28 22:28:00,44.8,23.0,-100.00,North,351,9.0,11.0,42,0.00,,,0.00,meteohub,2013-03-01 04:28:00,
2013-02-28 22:30:00,44.8,23.0,-100.00,NNW,347,8.0,11.0,42,0.00,,,0.00,meteohub,2013-03-01 04:30:00,
2013-02-28 22:32:00,44.6,23.0,-100.00,NNW,347,6.0,11.0,42,0.00,,,0.00,meteohub,2013-03-01 04:32:00,
2013-02-28 22:34:00,44.6,23.0,-100.00,NNW,344,7.0,11.0,42,0.00,,,0.00,meteohub,2013-03-01 04:34:00,
2013-02-28 22:35:00,44.6,23.0,-100.00,NNW,344,5.0,11.0,42,0.00,,,0.00,meteohub,2013-03-01 04:35:00,
2013-02-28 22:38:00,44.4,23.4,-100.00,NNW,344,8.0,11.0,43,0.00,,,0.00,meteohub,2013-03-01 04:38:00,
2013-02-28 22:39:00,44.4,23.4,-100.00,NNW,345,7.0,11.0,43,0.00,,,0.00,meteohub,2013-03-01 04:39:00,
2013-02-28 22:40:00,44.4,23.4,-100.00,NNW,345,7.0,11.0,43,0.00,,,0.00,meteohub,2013-03-01 04:40:00,
2013-02-28 22:45:00,44.2,23.2,-100.00,NNW,345,7.0,11.0,43,0.00,,,0.00,meteohub,2013-03-01 04:45:00,
2013-02-28 22:50:00,44.2,23.2,-100.00,NNW,344,6.0,11.0,43,0.00,,,0.00,meteohub,2013-03-01 04:50:00,
2013-02-28 22:51:00,44.2,23.2,-100.00,NNW,344,6.0,11.0,43,0.00,,,0.00,meteohub,2013-03-01 04:51:00,
2013-02-28 22:55:00,44.2,23.7,-100.00,NNW,345,9.0,11.0,44,0.00,,,0.00,meteohub,2013-03-01 04:55:00,
2013-02-28 22:57:00,44.1,23.5,-100.00,NNW,346,5.0,11.0,44,0.00,,,0.00,meteohub,2013-03-01 04:57:00,
2013-02-28 23:00:00,44.1,23.5,-100.00,NNW,346,5.0,11.0,44,0.00,,,0.00,meteohub,2013-03-01 05:00:00,
2013-02-28 23:05:00,43.9,23.9,-100.00,NNW,346,4.0,11.0,45,0.00,,,0.00,meteohub,2013-03-01 05:05:00,
2013-02-28 23:06:00,43.9,23.9,-100.00,NNW,346,6.0,10.0,45,0.00,,,0.00,meteohub,2013-03-01 05:06:00,
2013-02-28 23:10:00,43.5,24.1,-100.00,NNW,346,5.0,10.0,46,0.00,,,0.00,meteohub,2013-03-01 05:10:00,
2013-02-28 23:11:00,43.5,24.1,-100.00,NNW,346,6.0,10.0,46,0.00,,,0.00,meteohub,2013-03-01 05:11:00,
2013-02-28 23:15:00,43.2,23.7,-100.00,NNW,343,6.0,10.0,46,0.00,,,0.00,meteohub,2013-03-01 05:15:00,
2013-02-28 23:16:00,43.2,23.7,-100.00,NNW,343,5.0,10.0,46,0.00,,,0.00,meteohub,2013-03-01 05:16:00,
2013-02-28 23:17:00,43.2,23.7,-100.00,NNW,343,4.0,10.0,46,0.00,,,0.00,meteohub,2013-03-01 05:17:00,
2013-02-28 23:20:00,43.0,24.1,-100.00,NNW,343,5.0,10.0,47,0.00,,,0.00,meteohub,2013-03-01 05:20:00,
2013-02-28 23:21:00,43.0,24.1,-100.00,NNW,343,5.0,10.0,47,0.00,,,0.00,meteohub,2013-03-01 05:21:00,
2013-02-28 23:22:00,43.0,24.1,-100.00,NNW,343,5.0,10.0,47,0.00,,,0.00,meteohub,2013-03-01 05:22:00,
2013-02-28 23:25:00,42.8,23.9,-100.00,NNW,343,6.0,10.0,47,0.00,,,0.00,meteohub,2013-03-01 05:25:00,
2013-02-28 23:26:00,42.6,23.7,-100.00,NNW,343,5.0,10.0,47,0.00,,,0.00,meteohub,2013-03-01 05:26:00,
2013-02-28 23:27:00,42.6,24.3,-100.00,NNW,343,4.0,10.0,48,0.00,,,0.00,meteohub,2013-03-01 05:27:00,
2013-02-28 23:30:00,42.6,24.3,-100.00,NNW,343,5.0,9.0,48,0.00,,,0.00,meteohub,2013-03-01 05:30:00,
2013-02-28 23:31:00,42.6,24.3,-100.00,NNW,343,5.0,9.0,48,0.00,,,0.00,meteohub,2013-03-01 05:31:00,
2013-02-28 23:33:00,42.6,24.3,-100.00,NNW,343,4.0,9.0,48,0.00,,,0.00,meteohub,2013-03-01 05:33:00,
2013-02-28 23:35:00,42.4,24.1,-100.00,NNW,342,3.0,9.0,48,0.00,,,0.00,meteohub,2013-03-01 05:35:00,
2013-02-28 23:36:00,42.4,24.1,-100.00,NNW,342,3.0,9.0,48,0.00,,,0.00,meteohub,2013-03-01 05:36:00,
2013-02-28 23:37:00,42.4,24.1,-100.00,NNW,342,3.0,9.0,48,0.00,,,0.00,meteohub,2013-03-01 05:37:00,
2013-02-28 23:38:00,42.4,24.1,-100.00,NNW,342,3.0,9.0,48,0.00,,,0.00,meteohub,2013-03-01 05:38:00,
2013-02-28 23:40:00,42.3,23.9,-100.00,NNW,343,3.0,9.0,48,0.00,,,0.00,meteohub,2013-03-01 05:40:00,
2013-02-28 23:41:00,42.3,23.9,-100.00,NNW,342,4.0,9.0,48,0.00,,,0.00,meteohub,2013-03-01 05:41:00,
2013-02-28 23:42:00,42.3,23.9,-100.00,NNW,342,3.0,9.0,48,0.00,,,0.00,meteohub,2013-03-01 05:42:00,
2013-02-28 23:43:00,42.3,24.4,-100.00,NNW,343,5.0,9.0,49,0.00,,,0.00,meteohub,2013-03-01 05:43:00,
2013-02-28 23:47:00,42.1,24.3,-100.00,NNW,343,3.0,8.0,49,0.00,,,0.00,meteohub,2013-03-01 05:47:00,
2013-02-28 23:48:00,41.9,24.1,-100.00,NNW,343,4.0,8.0,49,0.00,,,0.00,meteohub,2013-03-01 05:48:00,
2013-02-28 23:52:00,41.7,23.9,-100.00,NNW,342,3.0,8.0,49,0.00,,,0.00,meteohub,2013-03-01 05:52:00,
2013-02-28 23:54:00,41.7,23.9,-100.00,NNW,342,2.0,8.0,49,0.00,,,0.00,meteohub,2013-03-01 05:54:00,
2013-02-28 23:57:00,41.5,23.7,-100.00,NNW,342,2.0,8.0,49,0.00,,,0.00,meteohub,2013-03-01 05:57:00,
2013-02-28 23:58:00,41.5,23.7,-100.00,NNW,342,3.0,8.0,49,0.00,,,0.00,meteohub,2013-03-01 05:58:00,
2013-02-28 23:59:00,41.5,23.7,-100.00,NNW,342,4.0,8.0,49,0.00,,,0.00,meteohub,2013-03-01 05:59:00,